PORTS® Data Listing: 8726520 St. Petersburg, FL

CO-OPS RAW PORTS DATA

************************      PRELIMINARY DATA      ************************** 

     THIS RAW DATA HAS NOT BEEN SUBJECT TO THE NATIONAL OCEAN SERVICE'S        
     QUALITY CONTROL OR QUALITY ASSURANCE PROCEDURES AND DOES NOT MEET         
     THE CRITERIA AND STANDARDS OF OFFICIAL NATIONAL OCEAN SERVICE             
     DATA.  IT IS RELEASED FOR LIMITED PUBLIC USE AS PRELIMINARY DATA TO       
     BE USED ONLY WITH APPROPRIATE CAUTION.                                    

************************      PRELIMINARY DATA      ************************** 


       CD   -   Calendar date
       T    -   Time
       TZ   -   Timezone
       PW   -   Predicted water level (feet above MLLW)
       OW   -   Observed water level (feet above MLLW)
       WS   -   Wind speed (knots)
       WD   -   Wind direction (degrees true)
       WG   -   Wind gust (knots)
       AT   -   Air temperature (degrees farenheit)
       WT   -   Water temperature (degrees farenheit)
       AP   -   Air pressure (millibars)
       SA   -   Salinty (PSU - Practical Salinity Units)
       SG   -   Specific gravity
       RH   -   Relative humidity
       AG   -   Air gap (feet)
       VI   -   Visibility (nautical miles)

       ** NOTE **
       A variable that has its data fields filled with "9"s, indicates that
       data was not collected for that sample period.
       **********


STATION NAME: St. Petersburg (8726520)
****************************************************************************************************
    CD       T    TZ    PW     OW    WS   WD   WG    AT    WT    AP    SA    SG     RH    AG   VI
****************************************************************************************************
2020/02/13 13:36 EST    0.70   1.29   12  214   17  76.8  71.1 1017.0 -9.9 -9.999 -99.9 -99.99 -9.99
2020/02/13 13:42 EST    0.74   1.31   15  218   19  76.8  71.2 1016.9 -9.9 -9.999 -99.9 -99.99 -9.99
2020/02/13 13:48 EST    0.78   1.35   16  209   19  76.5  71.2 1016.8 -9.9 -9.999 -99.9 -99.99 -9.99
2020/02/13 13:54 EST    0.82   1.38   17  216   21  76.5  71.4 1016.7 -9.9 -9.999 -99.9 -99.99 -9.99
2020/02/13 14:00 EST    0.86   1.40   15  213   20  76.5  71.4 1016.7 -9.9 -9.999 -99.9 -99.99 -9.99
2020/02/13 14:06 EST    0.90   1.43   16  201   19  76.5  71.4 1016.6 -9.9 -9.999 -99.9 -99.99 -9.99
2020/02/13 14:12 EST    0.93   1.47   15  204   20  76.3  71.6 1016.5 -9.9 -9.999 -99.9 -99.99 -9.99
2020/02/13 14:18 EST    0.97   1.51   17  201   21  76.3  71.6 1016.4 -9.9 -9.999 -99.9 -99.99 -9.99
2020/02/13 14:24 EST    1.01   1.54   16  202   21  76.3  71.6 1016.3 -9.9 -9.999 -99.9 -99.99 -9.99
2020/02/13 14:30 EST    1.05   1.57   18  205   21  76.1  71.8 1016.2 -9.9 -9.999 -99.9 -99.99 -9.99
2020/02/13 14:36 EST    1.09   1.61   15  209   19  76.3  71.8 1016.1 -9.9 -9.999 -99.9 -99.99 -9.99
2020/02/13 14:42 EST    1.12   1.64   16  199   21  76.3  71.8 1016.0 -9.9 -9.999 -99.9 -99.99 -9.99
2020/02/13 14:48 EST    1.16   1.68   18  202   23  76.3  72.0 1015.9 -9.9 -9.999 -99.9 -99.99 -9.99
2020/02/13 14:54 EST    1.19   1.73   16  201   20  76.5  72.0 1015.9 -9.9 -9.999 -99.9 -99.99 -9.99
2020/02/13 15:00 EST    1.23   1.75   15  199   21  76.6  72.0 1015.8 -9.9 -9.999 -99.9 -99.99 -9.99
2020/02/13 15:06 EST    1.26   1.79   18  192   23  76.6  72.0 1015.6 -9.9 -9.999 -99.9 -99.99 -9.99
2020/02/13 15:12 EST    1.29   1.82   17  196   21  76.6  72.0 1015.5 -9.9 -9.999 -99.9 -99.99 -9.99
2020/02/13 15:18 EST    1.32   1.86   16  197   23  76.6  72.0 1015.5 -9.9 -9.999 -99.9 -99.99 -9.99
2020/02/13 15:24 EST    1.35   1.89   13  202   19  76.6  71.8 1015.6 -9.9 -9.999 -99.9 -99.99 -9.99
2020/02/13 15:30 EST    1.38   1.92   16  204   20  76.6  71.8 1015.7 -9.9 -9.999 -99.9 -99.99 -9.99
2020/02/13 15:36 EST    1.41   1.95   13  205   19  77.0  71.8 1015.8 -9.9 -9.999 -99.9 -99.99 -9.99
2020/02/13 15:42 EST    1.43   1.96   12  211   16  77.4  71.8 1015.8 -9.9 -9.999 -99.9 -99.99 -9.99
2020/02/13 15:48 EST    1.46   1.99   14  203   19  77.5  71.8 1015.8 -9.9 -9.999 -99.9 -99.99 -9.99
2020/02/13 15:54 EST    1.48   2.00   14  207   17  77.4  71.8 1015.8 -9.9 -9.999 -99.9 -99.99 -9.99
2020/02/13 16:00 EST    1.50   2.02   13  210   17  77.7  71.6 1015.9 -9.9 -9.999 -99.9 -99.99 -9.99
2020/02/13 16:06 EST    1.52   2.04   14  212   18  77.5  71.6 1015.8 -9.9 -9.999 -99.9 -99.99 -9.99
2020/02/13 16:12 EST    1.54   2.06   15  206   19  77.4  71.4 1015.7 -9.9 -9.999 -99.9 -99.99 -9.99
2020/02/13 16:18 EST    1.55   2.09   13  219   18  77.5  71.2 1015.9 -9.9 -9.999 -99.9 -99.99 -9.99
2020/02/13 16:24 EST    1.57   2.12   15  204   18  77.4  71.2 1015.8 -9.9 -9.999 -99.9 -99.99 -9.99
2020/02/13 16:30 EST    1.58   2.12   17  208   19  77.2  71.1 1015.7 -9.9 -9.999 -99.9 -99.99 -9.99
2020/02/13 16:36 EST    1.59   2.14   12  217   17  77.7  71.1 1015.8 -9.9 -9.999 -99.9 -99.99 -9.99
2020/02/13 16:42 EST    1.60   2.15   16  206   19  77.4  71.1 1015.6 -9.9 -9.999 -99.9 -99.99 -9.99
2020/02/13 16:48 EST    1.60   2.14   15  215   20  77.2  71.1 1015.7 -9.9 -9.999 -99.9 -99.99 -9.99
2020/02/13 16:54 EST    1.61   2.16   12  219   17  77.4  71.1 1015.8 -9.9 -9.999 -99.9 -99.99 -9.99
2020/02/13 17:00 EST    1.61   2.15   15  212   19  77.0  70.9 1015.9 -9.9 -9.999 -99.9 -99.99 -9.99
2020/02/13 17:06 EST    1.61   2.13   15  217   18  77.0  70.9 1016.0 -9.9 -9.999 -99.9 -99.99 -9.99
2020/02/13 17:12 EST    1.61   2.13   14  223   17  77.0  70.7 1016.1 -9.9 -9.999 -99.9 -99.99 -9.99
2020/02/13 17:18 EST    1.61   2.12   11  220   15  77.0  70.7 1016.2 -9.9 -9.999 -99.9 -99.99 -9.99
2020/02/13 17:24 EST    1.60   2.09   11  219   15  76.8  70.7 1016.3 -9.9 -9.999 -99.9 -99.99 -9.99
2020/02/13 17:30 EST    1.60   2.10   11  228   15  76.5  70.5 1016.3 -9.9 -9.999 -99.9 -99.99 -9.99
2020/02/13 17:36 EST    1.59   2.10   10  231   14  76.3  70.5 1016.5 -9.9 -9.999 -99.9 -99.99 -9.99
2020/02/13 17:42 EST    1.58   2.01   10  227   13  76.1  70.5 1016.5 -9.9 -9.999 -99.9 -99.99 -9.99
2020/02/13 17:48 EST    1.57   2.06   10  231   14  75.9  70.5 1016.6 -9.9 -9.999 -99.9 -99.99 -9.99
2020/02/13 17:54 EST    1.55   2.03   10  234   13  75.7  70.5 1016.7 -9.9 -9.999 -99.9 -99.99 -9.99
2020/02/13 18:00 EST    1.54   1.97    9  229   13  75.4  70.5 1016.7 -9.9 -9.999 -99.9 -99.99 -9.99
2020/02/13 18:06 EST    1.52   2.01    8  230   13  75.2  70.5 1016.7 -9.9 -9.999 -99.9 -99.99 -9.99
2020/02/13 18:12 EST    1.51   1.95    9  232   11  75.0  70.5 1016.8 -9.9 -9.999 -99.9 -99.99 -9.99
2020/02/13 18:18 EST    1.49   1.94    9  223   12  75.0  70.5 1016.8 -9.9 -9.999 -99.9 -99.99 -9.99
2020/02/13 18:24 EST    1.47   1.92    8  227   11  74.8  70.5 1016.8 -9.9 -9.999 -99.9 -99.99 -9.99
2020/02/13 18:30 EST    1.44   1.88    8  227   12  74.7  70.3 1016.8 -9.9 -9.999 -99.9 -99.99 -9.99
2020/02/13 18:36 EST    1.42   1.86    6  232    9  74.7  70.3 1016.9 -9.9 -9.999 -99.9 -99.99 -9.99
2020/02/13 18:42 EST    1.39   1.83    6  232    9  74.5  70.3 1016.9 -9.9 -9.999 -99.9 -99.99 -9.99
2020/02/13 18:48 EST    1.37   1.82    7  216   10  74.5  70.3 1016.9 -9.9 -9.999 -99.9 -99.99 -9.99
2020/02/13 18:54 EST    1.34   1.79    6  214    9  74.3  70.3 1016.9 -9.9 -9.999 -99.9 -99.99 -9.99
2020/02/13 19:00 EST    1.31   1.75    8  217   10  74.3  70.3 1017.0 -9.9 -9.999 -99.9 -99.99 -9.99
2020/02/13 19:06 EST    1.28   1.73    6  209   10  74.1  70.3 1017.0 -9.9 -9.999 -99.9 -99.99 -9.99
2020/02/13 19:12 EST    1.25   1.69    7  214   10  74.1  70.3 1017.0 -9.9 -9.999 -99.9 -99.99 -9.99
2020/02/13 19:18 EST    1.22   1.65    7  216   10  73.9  70.2 1017.1 -9.9 -9.999 -99.9 -99.99 -9.99
2020/02/13 19:24 EST    1.19   1.62    7  227   11  73.9  70.2 1017.1 -9.9 -9.999 -99.9 -99.99 -9.99
2020/02/13 19:30 EST    1.16   1.59    5  220    8  73.8  70.2 1017.2 -9.9 -9.999 -99.9 -99.99 -9.99
2020/02/13 19:36 EST    1.12   1.55    6  231    8  73.6  70.2 1017.3 -9.9 -9.999 -99.9 -99.99 -9.99
2020/02/13 19:42 EST    1.09   1.52    6  222    9  73.6  70.2 1017.3 -9.9 -9.999 -99.9 -99.99 -9.99
2020/02/13 19:48 EST    1.05   1.49    6  217    7  73.4  70.0 1017.4 -9.9 -9.999 -99.9 -99.99 -9.99
2020/02/13 19:54 EST    1.02   1.44    6  217    8  73.4  70.0 1017.4 -9.9 -9.999 -99.9 -99.99 -9.99
2020/02/13 20:00 EST    0.98   1.41    5  213    7  73.2  70.0 1017.5 -9.9 -9.999 -99.9 -99.99 -9.99
2020/02/13 20:06 EST    0.95   1.37    7  214    8  73.2  70.0 1017.5 -9.9 -9.999 -99.9 -99.99 -9.99
2020/02/13 20:12 EST    0.91   1.32    7  214    9  73.2  70.0 1017.6 -9.9 -9.999 -99.9 -99.99 -9.99
2020/02/13 20:18 EST    0.87   1.29    6  225   10  73.2  70.0 1017.6 -9.9 -9.999 -99.9 -99.99 -9.99
2020/02/13 20:24 EST    0.84   1.24    6  222   10  73.2  69.8 1017.6 -9.9 -9.999 -99.9 -99.99 -9.99
2020/02/13 20:30 EST    0.80   1.20    6  219   10  73.0  69.8 1017.6 -9.9 -9.999 -99.9 -99.99 -9.99
2020/02/13 20:36 EST    0.76   1.17    6  213    7  73.0  69.8 1017.7 -9.9 -9.999 -99.9 -99.99 -9.99
2020/02/13 20:42 EST    0.73   1.13    5  223    8  73.0  69.8 1017.7 -9.9 -9.999 -99.9 -99.99 -9.99
2020/02/13 20:48 EST    0.69   1.08    6  226    7  72.9  69.8 1017.7 -9.9 -9.999 -99.9 -99.99 -9.99
2020/02/13 20:54 EST    0.66   1.05    6  232    9  72.9  69.8 1017.7 -9.9 -9.999 -99.9 -99.99 -9.99
2020/02/13 21:00 EST    0.62   1.01    6  223    8  72.7  69.8 1017.7 -9.9 -9.999 -99.9 -99.99 -9.99
2020/02/13 21:06 EST    0.59   0.97    6  226    9  72.7  70.0 1017.7 -9.9 -9.999 -99.9 -99.99 -9.99
2020/02/13 21:12 EST    0.55   0.94    6  217    8  72.7  70.0 1017.7 -9.9 -9.999 -99.9 -99.99 -9.99
2020/02/13 21:18 EST    0.52   0.90    6  226    7  72.5  70.0 1017.8 -9.9 -9.999 -99.9 -99.99 -9.99
2020/02/13 21:24 EST    0.49   0.86    5  233    8  72.5  70.0 1017.9 -9.9 -9.999 -99.9 -99.99 -9.99
2020/02/13 21:30 EST    0.45   0.83    6  222    8  72.5  70.0 1018.0 -9.9 -9.999 -99.9 -99.99 -9.99
2020/02/13 21:36 EST    0.42   0.80    5  217    7  72.3  70.2 1018.0 -9.9 -9.999 -99.9 -99.99 -9.99
2020/02/13 21:42 EST    0.39   0.77    5  227    8  72.3  70.2 1018.1 -9.9 -9.999 -99.9 -99.99 -9.99
2020/02/13 21:48 EST    0.36   0.74    5  226    7  72.3  70.2 1018.1 -9.9 -9.999 -99.9 -99.99 -9.99
2020/02/13 21:54 EST    0.34   0.71 -999 -999 -999 -99.9 -99.9 -999.9 -9.9 -9.999 -99.9 -99.99 -9.99
2020/02/13 22:00 EST    0.31   0.68    5  231    6  72.1  70.2 1018.2 -9.9 -9.999 -99.9 -99.99 -9.99
2020/02/13 22:06 EST    0.28   0.65    5  227    6  72.1  70.3 1018.2 -9.9 -9.999 -99.9 -99.99 -9.99
2020/02/13 22:12 EST    0.26   0.63    4  239    5  72.1  70.3 1018.3 -9.9 -9.999 -99.9 -99.99 -9.99
2020/02/13 22:18 EST    0.24   0.61    4  229    6  72.1  70.3 1018.3 -9.9 -9.999 -99.9 -99.99 -9.99
2020/02/13 22:24 EST    0.21   0.58    5  227    7  72.0  70.3 1018.2 -9.9 -9.999 -99.9 -99.99 -9.99
2020/02/13 22:30 EST    0.19   0.56    4  241    7  72.0  70.3 1018.3 -9.9 -9.999 -99.9 -99.99 -9.99
2020/02/13 22:36 EST    0.17   0.55    3  238    5  72.0  70.5 1018.3 -9.9 -9.999 -99.9 -99.99 -9.99
2020/02/13 22:42 EST    0.16   0.53    3  222    5  72.0  70.5 1018.3 -9.9 -9.999 -99.9 -99.99 -9.99
2020/02/13 22:48 EST    0.14   0.51    4  227    5  71.8  70.3 1018.3 -9.9 -9.999 -99.9 -99.99 -9.99
2020/02/13 22:54 EST    0.13   0.50    4  225    5  71.8  70.5 1018.3 -9.9 -9.999 -99.9 -99.99 -9.99
2020/02/13 23:00 EST    0.11   0.48    3  223    4  71.6  70.5 1018.3 -9.9 -9.999 -99.9 -99.99 -9.99
2020/02/13 23:06 EST    0.10   0.47    3  217    5  71.6  70.5 1018.3 -9.9 -9.999 -99.9 -99.99 -9.99
2020/02/13 23:12 EST    0.09   0.46    3  226    5  71.6  70.5 1018.3 -9.9 -9.999 -99.9 -99.99 -9.99
2020/02/13 23:18 EST    0.09   0.45    3  227    4  71.6  70.5 1018.3 -9.9 -9.999 -99.9 -99.99 -9.99
2020/02/13 23:24 EST    0.08   0.45    4  220    5  71.6  70.5 1018.3 -9.9 -9.999 -99.9 -99.99 -9.99
2020/02/13 23:30 EST    0.08   0.44    4  224    5  71.6  70.5 1018.3 -9.9 -9.999 -99.9 -99.99 -9.99
2020/02/13 23:36 EST    0.07   0.44    4  222    5  71.6  70.5 1018.3 -9.9 -9.999 -99.9 -99.99 -9.99
2020/02/13 23:42 EST    0.07   0.43    3  218    4  71.6  70.5 1018.3 -9.9 -9.999 -99.9 -99.99 -9.99
2020/02/13 23:48 EST    0.08   0.43    3  224    4  71.4  70.5 1018.3 -9.9 -9.999 -99.9 -99.99 -9.99
2020/02/13 23:54 EST    0.08   0.42    4  226    5  71.4  70.5 1018.3 -9.9 -9.999 -99.9 -99.99 -9.99
2020/02/14 00:00 EST    0.08   0.42    3  223    4  71.4  70.5 1018.3 -9.9 -9.999 -99.9 -99.99 -9.99
2020/02/14 00:06 EST    0.09   0.44    4  214    5  71.2  70.5 1018.3 -9.9 -9.999 -99.9 -99.99 -9.99
2020/02/14 00:12 EST    0.10   0.44    3  218    4  71.2  70.5 1018.2 -9.9 -9.999 -99.9 -99.99 -9.99
2020/02/14 00:18 EST    0.11   0.45    4  210    5  71.2  70.5 1018.2 -9.9 -9.999 -99.9 -99.99 -9.99
2020/02/14 00:24 EST    0.12   0.48    4  212    6  71.2  70.5 1018.1 -9.9 -9.999 -99.9 -99.99 -9.99
2020/02/14 00:30 EST    0.13   0.50    5  212    5  71.1  70.5 1018.1 -9.9 -9.999 -99.9 -99.99 -9.99
2020/02/14 00:36 EST    0.14   0.53    5  225    6  71.1  70.5 1018.0 -9.9 -9.999 -99.9 -99.99 -9.99
2020/02/14 00:42 EST    0.16   0.55    5  221    6  71.1  70.5 1018.0 -9.9 -9.999 -99.9 -99.99 -9.99
2020/02/14 00:48 EST    0.18   0.58    5  215    8  71.1  70.5 1017.9 -9.9 -9.999 -99.9 -99.99 -9.99
2020/02/14 00:54 EST    0.20   0.61    6  228    7  71.1  70.5 1018.0 -9.9 -9.999 -99.9 -99.99 -9.99
2020/02/14 01:00 EST    0.22   0.65    6  221    8  71.1  70.5 1017.9 -9.9 -9.999 -99.9 -99.99 -9.99
2020/02/14 01:06 EST    0.24   0.68    6  218    7  71.1  70.5 1018.0 -9.9 -9.999 -99.9 -99.99 -9.99
2020/02/14 01:12 EST    0.26   0.71    6  218    8  71.1  70.5 1018.0 -9.9 -9.999 -99.9 -99.99 -9.99
2020/02/14 01:18 EST    0.28   0.74    6  219    8  71.1  70.5 1018.0 -9.9 -9.999 -99.9 -99.99 -9.99
2020/02/14 01:24 EST    0.31   0.76    6  225    7  71.1  70.5 1018.1 -9.9 -9.999 -99.9 -99.99 -9.99
2020/02/14 01:30 EST    0.33   0.79    6  232    8  71.1  70.7 1018.0 -9.9 -9.999 -99.9 -99.99 -9.99
2020/02/14 01:36 EST    0.36   0.82    7  213    9  70.9  70.7 1018.0 -9.9 -9.999 -99.9 -99.99 -9.99
2020/02/14 01:42 EST    0.39   0.85    6  212    9  70.7  70.7 1018.0 -9.9 -9.999 -99.9 -99.99 -9.99
2020/02/14 01:48 EST    0.42   0.87    8  217    9  70.7  70.7 1018.0 -9.9 -9.999 -99.9 -99.99 -9.99
2020/02/14 01:54 EST    0.44   0.89    5  225    8  70.7  70.5 1018.0 -9.9 -9.999 -99.9 -99.99 -9.99
2020/02/14 02:00 EST    0.47   0.92    6  228    8  70.7  70.7 1018.0 -9.9 -9.999 -99.9 -99.99 -9.99
2020/02/14 02:06 EST    0.50   0.94    5  218    8  70.7  70.7 1018.0 -9.9 -9.999 -99.9 -99.99 -9.99
2020/02/14 02:12 EST    0.53   0.97    7  217    9  70.5  70.7 1018.0 -9.9 -9.999 -99.9 -99.99 -9.99
2020/02/14 02:18 EST    0.56   0.98    5  233    9  70.5  70.7 1018.0 -9.9 -9.999 -99.9 -99.99 -9.99
2020/02/14 02:24 EST    0.60   1.01    4  224    6  70.7  70.7 1018.0 -9.9 -9.999 -99.9 -99.99 -9.99
2020/02/14 02:30 EST    0.63   1.03    5  229    7  70.5  70.7 1018.0 -9.9 -9.999 -99.9 -99.99 -9.99
2020/02/14 02:36 EST    0.66   1.06    6  228    8  70.5  70.7 1017.9 -9.9 -9.999 -99.9 -99.99 -9.99
2020/02/14 02:42 EST    0.69   1.09    5  223    8  70.5  70.7 1017.9 -9.9 -9.999 -99.9 -99.99 -9.99
2020/02/14 02:48 EST    0.72   1.12    5  220    6  70.7  70.7 1017.9 -9.9 -9.999 -99.9 -99.99 -9.99
2020/02/14 02:54 EST    0.75   1.16    4  208    6  70.7  70.7 1017.9 -9.9 -9.999 -99.9 -99.99 -9.99
2020/02/14 03:00 EST    0.78   1.18    5  206    6  70.5  70.7 1017.9 -9.9 -9.999 -99.9 -99.99 -9.99
2020/02/14 03:06 EST    0.82   1.22    5  213    7  70.5  70.7 1017.9 -9.9 -9.999 -99.9 -99.99 -9.99
2020/02/14 03:12 EST    0.85   1.26    6  220    8  70.5  70.7 1017.8 -9.9 -9.999 -99.9 -99.99 -9.99
2020/02/14 03:18 EST    0.88   1.30    5  205    8  70.7  70.7 1017.8 -9.9 -9.999 -99.9 -99.99 -9.99
2020/02/14 03:24 EST    0.90   1.33    8  210    9  70.7  70.5 1017.8 -9.9 -9.999 -99.9 -99.99 -9.99
2020/02/14 03:30 EST    0.93   1.37    5  222    7  70.7  70.5 1017.8 -9.9 -9.999 -99.9 -99.99 -9.99
2020/02/14 03:36 EST    0.96   1.40    5  220    7  70.7  70.5 1017.8 -9.9 -9.999 -99.9 -99.99 -9.99
2020/02/14 03:42 EST    0.99   1.43    5  211    7  70.7  70.5 1017.8 -9.9 -9.999 -99.9 -99.99 -9.99
2020/02/14 03:48 EST    1.02   1.47    6  204    8  70.7  70.3 1017.8 -9.9 -9.999 -99.9 -99.99 -9.99
2020/02/14 03:54 EST    1.04   1.50    6  216    8  70.7  70.3 1017.8 -9.9 -9.999 -99.9 -99.99 -9.99
2020/02/14 04:00 EST    1.07   1.52    8  198    9  70.7  70.5 1017.8 -9.9 -9.999 -99.9 -99.99 -9.99
2020/02/14 04:06 EST    1.09   1.56    7  210    8  70.7  70.5 1017.9 -9.9 -9.999 -99.9 -99.99 -9.99
2020/02/14 04:12 EST    1.11   1.58    6  215    8  70.7  70.3 1017.9 -9.9 -9.999 -99.9 -99.99 -9.99
2020/02/14 04:18 EST    1.14   1.60    6  219    7  70.7  70.3 1017.9 -9.9 -9.999 -99.9 -99.99 -9.99
2020/02/14 04:24 EST    1.16   1.63    4  214    6  70.7  70.3 1018.0 -9.9 -9.999 -99.9 -99.99 -9.99
2020/02/14 04:30 EST    1.18   1.64    5  207    6  70.5  70.3 1018.0 -9.9 -9.999 -99.9 -99.99 -9.99
2020/02/14 04:36 EST    1.19   1.67    5  200    6  70.5  70.3 1018.0 -9.9 -9.999 -99.9 -99.99 -9.99
2020/02/14 04:42 EST    1.21   1.68    4  203    5  70.5  70.3 1018.0 -9.9 -9.999 -99.9 -99.99 -9.99
2020/02/14 04:48 EST    1.23   1.70    5  211    7  70.5  70.3 1018.1 -9.9 -9.999 -99.9 -99.99 -9.99
2020/02/14 04:54 EST    1.24   1.72    5  211    6  70.3  70.3 1018.0 -9.9 -9.999 -99.9 -99.99 -9.99
2020/02/14 05:00 EST    1.26   1.73    4  210    5  70.3  70.3 1018.0 -9.9 -9.999 -99.9 -99.99 -9.99
2020/02/14 05:06 EST    1.27   1.75    6  207    6  70.5  70.3 1018.0 -9.9 -9.999 -99.9 -99.99 -9.99
2020/02/14 05:12 EST    1.28   1.75    4  202    6  70.5  70.3 1018.0 -9.9 -9.999 -99.9 -99.99 -9.99
2020/02/14 05:18 EST    1.29   1.77    5  187    7  70.5  70.2 1018.0 -9.9 -9.999 -99.9 -99.99 -9.99
2020/02/14 05:24 EST    1.29   1.77    5  183    7  70.5  70.2 1018.2 -9.9 -9.999 -99.9 -99.99 -9.99
2020/02/14 05:30 EST    1.30   1.77    5  198    7  70.5  70.2 1018.2 -9.9 -9.999 -99.9 -99.99 -9.99
2020/02/14 05:36 EST    1.31   1.78    4  206    5  70.5  70.2 1018.3 -9.9 -9.999 -99.9 -99.99 -9.99
2020/02/14 05:42 EST    1.31   1.78    5  206    6  70.5  70.2 1018.4 -9.9 -9.999 -99.9 -99.99 -9.99
2020/02/14 05:48 EST    1.31   1.79    5  199    6  70.5  70.2 1018.4 -9.9 -9.999 -99.9 -99.99 -9.99
2020/02/14 05:54 EST    1.31   1.80    5  203    6  70.5  70.2 1018.4 -9.9 -9.999 -99.9 -99.99 -9.99
2020/02/14 06:00 EST    1.31   1.81    4  201    6  70.5  70.2 1018.4 -9.9 -9.999 -99.9 -99.99 -9.99
2020/02/14 06:06 EST    1.31   1.81    5  191    6  70.5  70.3 1018.5 -9.9 -9.999 -99.9 -99.99 -9.99
2020/02/14 06:12 EST    1.31   1.82    5  199    6  70.5  70.3 1018.5 -9.9 -9.999 -99.9 -99.99 -9.99
2020/02/14 06:18 EST    1.30   1.81    4  196    6  70.5  70.3 1018.6 -9.9 -9.999 -99.9 -99.99 -9.99
2020/02/14 06:24 EST    1.30   1.80    4  192    6  70.5  70.3 1018.5 -9.9 -9.999 -99.9 -99.99 -9.99
2020/02/14 06:30 EST    1.29   1.80    6  186    6  70.3  70.2 1018.6 -9.9 -9.999 -99.9 -99.99 -9.99
2020/02/14 06:36 EST    1.28   1.78    5  197    6  70.2  70.2 1018.8 -9.9 -9.999 -99.9 -99.99 -9.99
2020/02/14 06:42 EST    1.27   1.76    4  193    5  70.2  70.2 1018.7 -9.9 -9.999 -99.9 -99.99 -9.99
2020/02/14 06:48 EST    1.26   1.75    5  188    6  70.2  70.3 1018.8 -9.9 -9.999 -99.9 -99.99 -9.99
2020/02/14 06:54 EST    1.25   1.74    6  183    7  70.2  70.3 1018.8 -9.9 -9.999 -99.9 -99.99 -9.99
2020/02/14 07:00 EST    1.24   1.73    7  193    7  70.2  70.3 1018.9 -9.9 -9.999 -99.9 -99.99 -9.99
2020/02/14 07:06 EST    1.22   1.71    6  195    7  70.2  70.3 1018.9 -9.9 -9.999 -99.9 -99.99 -9.99
2020/02/14 07:12 EST    1.21   1.69    4  212    7  70.2  70.2 1019.0 -9.9 -9.999 -99.9 -99.99 -9.99
2020/02/14 07:18 EST    1.19   1.68    3  229    5  70.2  70.2 1019.2 -9.9 -9.999 -99.9 -99.99 -9.99
2020/02/14 07:24 EST    1.17   1.66    4  217    4  70.2  70.3 1019.2 -9.9 -9.999 -99.9 -99.99 -9.99
2020/02/14 07:30 EST    1.16   1.63    5  201    6  70.3  70.3 1019.3 -9.9 -9.999 -99.9 -99.99 -9.99
2020/02/14 07:36 EST    1.14   1.62    4  226    5  70.3  70.2 1019.3 -9.9 -9.999 -99.9 -99.99 -9.99
2020/02/14 07:42 EST    1.12   1.60    2  226    4  70.3  70.2 1019.4 -9.9 -9.999 -99.9 -99.99 -9.99
2020/02/14 07:48 EST    1.10   1.58    2  277    4  70.3  70.2 1019.6 -9.9 -9.999 -99.9 -99.99 -9.99
2020/02/14 07:54 EST    1.08   1.57    4  309    6  70.5  70.2 1019.7 -9.9 -9.999 -99.9 -99.99 -9.99
2020/02/14 08:00 EST    1.05   1.57    2  292    4  70.5  70.2 1019.8 -9.9 -9.999 -99.9 -99.99 -9.99
2020/02/14 08:06 EST    1.03   1.53    4  265    5  70.5  70.2 1020.0 -9.9 -9.999 -99.9 -99.99 -9.99
2020/02/14 08:12 EST    1.01   1.51    4  267    7  70.5  70.2 1020.1 -9.9 -9.999 -99.9 -99.99 -9.99
2020/02/14 08:18 EST    0.99   1.49    5  275    7  70.2  70.2 1020.1 -9.9 -9.999 -99.9 -99.99 -9.99
2020/02/14 08:24 EST    0.96   1.46    6  291    8  70.2  70.2 1020.3 -9.9 -9.999 -99.9 -99.99 -9.99
2020/02/14 08:30 EST    0.94   1.44    6  297    7  70.0  70.2 1020.4 -9.9 -9.999 -99.9 -99.99 -9.99
2020/02/14 08:36 EST    0.91   1.43    5  316   10  69.6  70.0 1020.5 -9.9 -9.999 -99.9 -99.99 -9.99
2020/02/14 08:42 EST    0.89   1.42    4  355    7  69.3  70.0 1020.6 -9.9 -9.999 -99.9 -99.99 -9.99
2020/02/14 08:48 EST    0.87   1.40    5  354    8  68.7  70.0 1020.9 -9.9 -9.999 -99.9 -99.99 -9.99
2020/02/14 08:54 EST    0.84   1.38    6  353   10  68.7  70.0 1021.0 -9.9 -9.999 -99.9 -99.99 -9.99
2020/02/14 09:00 EST    0.82   1.36    6  344   10  68.7  70.0 1021.0 -9.9 -9.999 -99.9 -99.99 -9.99
2020/02/14 09:06 EST    0.79   1.34    6  337    9  68.5  70.0 1021.1 -9.9 -9.999 -99.9 -99.99 -9.99
2020/02/14 09:12 EST    0.77   1.31    4  357    8  68.7  70.0 1021.2 -9.9 -9.999 -99.9 -99.99 -9.99
2020/02/14 09:18 EST    0.75   1.28    3   13    7  68.9  70.0 1021.2 -9.9 -9.999 -99.9 -99.99 -9.99
2020/02/14 09:24 EST    0.72   1.25    5  357    8  68.7  70.0 1021.2 -9.9 -9.999 -99.9 -99.99 -9.99
2020/02/14 09:30 EST    0.70   1.23    3    3    7  69.1  70.0 1021.2 -9.9 -9.999 -99.9 -99.99 -9.99
2020/02/14 09:36 EST    0.68   1.22    4    0    5  69.1  70.0 1021.2 -9.9 -9.999 -99.9 -99.99 -9.99
2020/02/14 09:42 EST    0.65   1.18    4   11    6  69.1  70.0 1021.2 -9.9 -9.999 -99.9 -99.99 -9.99
2020/02/14 09:48 EST    0.63   1.15    2    8    5  69.6  69.8 1021.4 -9.9 -9.999 -99.9 -99.99 -9.99
2020/02/14 09:54 EST    0.61   1.11    3  357    5  69.6  69.8 1021.4 -9.9 -9.999 -99.9 -99.99 -9.99
2020/02/14 10:00 EST    0.59   1.09    4  346    6  69.6  69.8 1021.5 -9.9 -9.999 -99.9 -99.99 -9.99
2020/02/14 10:06 EST    0.57   1.06    2  331    7  69.6  69.8 1021.4 -9.9 -9.999 -99.9 -99.99 -9.99
2020/02/14 10:12 EST    0.56   1.01    3  360    7  70.0  70.0 1021.4 -9.9 -9.999 -99.9 -99.99 -9.99
2020/02/14 10:18 EST    0.54   0.98    3   19    5  70.2  70.0 1021.5 -9.9 -9.999 -99.9 -99.99 -9.99
2020/02/14 10:24 EST    0.52   0.95    4   47    5  70.3  70.0 1021.5 -9.9 -9.999 -99.9 -99.99 -9.99
2020/02/14 10:30 EST    0.51   0.91    5   26    7  70.2  70.0 1021.5 -9.9 -9.999 -99.9 -99.99 -9.99
2020/02/14 10:36 EST    0.50   0.89    4   23    5  70.5  70.0 1021.5 -9.9 -9.999 -99.9 -99.99 -9.99
2020/02/14 10:42 EST    0.48   0.85    4   39    6  70.3  70.0 1021.4 -9.9 -9.999 -99.9 -99.99 -9.99
2020/02/14 10:48 EST    0.47   0.82    4   64    6  70.3  70.0 1021.3 -9.9 -9.999 -99.9 -99.99 -9.99
2020/02/14 10:54 EST    0.46   0.79    3   71    5  70.7  70.0 1021.3 -9.9 -9.999 -99.9 -99.99 -9.99
2020/02/14 11:00 EST    0.45   0.76    2   70    4  70.7  70.0 1021.3 -9.9 -9.999 -99.9 -99.99 -9.99
2020/02/14 11:06 EST    0.45   0.75    3   83    4  70.7  70.0 1021.2 -9.9 -9.999 -99.9 -99.99 -9.99
2020/02/14 11:12 EST    0.44   0.74    2   86    3  71.2  70.0 1021.2 -9.9 -9.999 -99.9 -99.99 -9.99
2020/02/14 11:18 EST    0.44   0.71    4   83    5  71.1  70.2 1021.2 -9.9 -9.999 -99.9 -99.99 -9.99
2020/02/14 11:24 EST    0.44   0.71    4   82    5  70.9  70.2 1021.0 -9.9 -9.999 -99.9 -99.99 -9.99
2020/02/14 11:30 EST    0.44   0.71    4   82    5  70.9  70.2 1021.1 -9.9 -9.999 -99.9 -99.99 -9.99
2020/02/14 11:36 EST    0.44   0.69    3   77    4  71.4  70.2 1021.1 -9.9 -9.999 -99.9 -99.99 -9.99
2020/02/14 11:42 EST    0.44   0.68    4   79    5  71.6  70.2 1021.0 -9.9 -9.999 -99.9 -99.99 -9.99
2020/02/14 11:48 EST    0.44   0.69    3   87    5  72.0  70.2 1021.0 -9.9 -9.999 -99.9 -99.99 -9.99
2020/02/14 11:54 EST    0.45   0.69    3   78    5  72.1  70.2 1020.8 -9.9 -9.999 -99.9 -99.99 -9.99
2020/02/14 12:00 EST    0.46   0.70    3  101    4  72.9  70.2 1020.8 -9.9 -9.999 -99.9 -99.99 -9.99
2020/02/14 12:06 EST    0.46   0.71    8   44   11  73.9  70.3 1020.8 -9.9 -9.999 -99.9 -99.99 -9.99
2020/02/14 12:12 EST    0.47   0.71    8   37   11  74.7  70.3 1020.8 -9.9 -9.999 -99.9 -99.99 -9.99
2020/02/14 12:18 EST    0.49   0.73    6   35   10  75.4  70.3 1020.7 -9.9 -9.999 -99.9 -99.99 -9.99
2020/02/14 12:24 EST    0.50   0.75    7   35   11  75.4  70.3 1020.6 -9.9 -9.999 -99.9 -99.99 -9.99
2020/02/14 12:30 EST    0.52   0.76    6   45    9  75.6  70.3 1020.5 -9.9 -9.999 -99.9 -99.99 -9.99
2020/02/14 12:36 EST    0.53   0.78    5   57    8  75.9  70.3 1020.5 -9.9 -9.999 -99.9 -99.99 -9.99
2020/02/14 12:42 EST    0.55   0.78    5   74    7  75.9  70.3 1020.3 -9.9 -9.999 -99.9 -99.99 -9.99
2020/02/14 12:48 EST    0.57   0.79    5   63    7  75.6  70.3 1020.3 -9.9 -9.999 -99.9 -99.99 -9.99
2020/02/14 12:54 EST    0.59   0.82    9   56   10  74.5  70.3 1020.3 -9.9 -9.999 -99.9 -99.99 -9.99
2020/02/14 13:00 EST    0.61   0.83    9   53   11  73.8  70.3 1020.2 -9.9 -9.999 -99.9 -99.99 -9.99
2020/02/14 13:06 EST    0.64   0.84    7   48   11  74.7  70.3 1020.3 -9.9 -9.999 -99.9 -99.99 -9.99
2020/02/14 13:12 EST    0.66   0.87    7   41   10  74.5  70.3 1020.2 -9.9 -9.999 -99.9 -99.99 -9.99
2020/02/14 13:18 EST    0.69   0.89    7   55    8  74.1  70.3 1020.1 -9.9 -9.999 -99.9 -99.99 -9.99
2020/02/14 13:24 EST    0.72   0.90    6   64    9  74.5  70.3 1019.9 -9.9 -9.999 -99.9 -99.99 -9.99
2020/02/14 13:30 EST    0.74   0.93    9   54   11  73.8  70.3 1019.9 -9.9 -9.999 -99.9 -99.99 -9.99
2020/02/14 13:36 EST    0.77   0.94    6   59   10  73.6  70.5 1019.8 -9.9 -9.999 -99.9 -99.99 -9.99
2020/02/14 13:42 EST    0.80   0.95    6   61    8  73.9  70.3 1019.6 -9.9 -9.999 -99.9 -99.99 -9.99
2020/02/14 13:48 EST    0.83   0.97    6   58    9  73.8  70.5 1019.6 -9.9 -9.999 -99.9 -99.99 -9.99
2020/02/14 13:54 EST    0.87   1.00    5   68    7  74.8  70.5 1019.4 -9.9 -9.999 -99.9 -99.99 -9.99
2020/02/14 14:00 EST    0.90   1.03    5   53    7  74.1  70.5 1019.4 -9.9 -9.999 -99.9 -99.99 -9.99
2020/02/14 14:06 EST    0.93   1.04    5   56    6  74.7  70.5 1019.4 -9.9 -9.999 -99.9 -99.99 -9.99
2020/02/14 14:12 EST    0.96   1.08    4   66    6  75.4  70.7 1019.4 -9.9 -9.999 -99.9 -99.99 -9.99
2020/02/14 14:18 EST    1.00   1.12    4   75    6  75.4  70.7 1019.3 -9.9 -9.999 -99.9 -99.99 -9.99
2020/02/14 14:24 EST    1.03   1.15    3   83    6  75.9  70.7 1019.3 -9.9 -9.999 -99.9 -99.99 -9.99
2020/02/14 14:30 EST    1.07   1.17    3   73    6  75.4  70.9 1019.3 -9.9 -9.999 -99.9 -99.99 -9.99
2020/02/14 14:36 EST    1.10   1.20    3   79    6  75.6  70.9 1019.3 -9.9 -9.999 -99.9 -99.99 -9.99
2020/02/14 14:42 EST    1.13   1.22    2  111    5  74.7  70.9 1019.4 -9.9 -9.999 -99.9 -99.99 -9.99
2020/02/14 14:48 EST    1.17   1.25    3   81    4  74.1  70.9 1019.4 -9.9 -9.999 -99.9 -99.99 -9.99
2020/02/14 14:54 EST    1.20   1.30    4   71    5  74.3  70.9 1019.4 -9.9 -9.999 -99.9 -99.99 -9.99
2020/02/14 15:00 EST    1.24   1.32    5   67    6  74.5  70.9 1019.3 -9.9 -9.999 -99.9 -99.99 -9.99
2020/02/14 15:06 EST    1.27   1.37    4   66    7  74.7  70.9 1019.3 -9.9 -9.999 -99.9 -99.99 -9.99
2020/02/14 15:12 EST    1.30   1.41    2   69    6  74.5  70.9 1019.4 -9.9 -9.999 -99.9 -99.99 -9.99
2020/02/14 15:18 EST    1.33   1.44    3  186    4  74.5  70.9 1019.5 -9.9 -9.999 -99.9 -99.99 -9.99
2020/02/14 15:24 EST    1.37   1.48    5  187    6  73.4  70.9 1019.6 -9.9 -9.999 -99.9 -99.99 -9.99
2020/02/14 15:30 EST    1.40   1.52    3  208    6  72.9  70.9 1019.7 -9.9 -9.999 -99.9 -99.99 -9.99
2020/02/14 15:36 EST    1.43   1.55    4  188    5  73.0  70.9 1019.7 -9.9 -9.999 -99.9 -99.99 -9.99
2020/02/14 15:42 EST    1.46   1.59    4  168    5  73.4  71.1 1019.7 -9.9 -9.999 -99.9 -99.99 -9.99
2020/02/14 15:48 EST    1.48   1.63    4  172    4  73.6  71.1 1019.7 -9.9 -9.999 -99.9 -99.99 -9.99
2020/02/14 15:54 EST    1.51   1.65    2  195    4  73.6  71.2 1019.8 -9.9 -9.999 -99.9 -99.99 -9.99
2020/02/14 16:00 EST    1.54   1.69    2  105    3  74.1  71.2 1019.8 -9.9 -9.999 -99.9 -99.99 -9.99
2020/02/14 16:06 EST    1.56   1.71    2   17    4  74.5  71.2 1019.9 -9.9 -9.999 -99.9 -99.99 -9.99
2020/02/14 16:12 EST    1.58   1.73    6  329    9  74.3  71.4 1019.9 -9.9 -9.999 -99.9 -99.99 -9.99
2020/02/14 16:18 EST    1.61   1.77    4  343    7  74.8  71.4 1019.8 -9.9 -9.999 -99.9 -99.99 -9.99
2020/02/14 16:24 EST    1.63   1.79    5  350    8  75.4  71.4 1019.8 -9.9 -9.999 -99.9 -99.99 -9.99
2020/02/14 16:30 EST    1.65   1.81    5  334    8  75.7  71.4 1019.8 -9.9 -9.999 -99.9 -99.99 -9.99
2020/02/14 16:36 EST    1.67   1.84    6  350    9  75.2  71.6 1019.8 -9.9 -9.999 -99.9 -99.99 -9.99
2020/02/14 16:42 EST    1.68   1.85    5  333    9  75.0  71.6 1019.8 -9.9 -9.999 -99.9 -99.99 -9.99
2020/02/14 16:48 EST    1.70   1.85    7  344   10  74.8  71.6 1019.9 -9.9 -9.999 -99.9 -99.99 -9.99
2020/02/14 16:54 EST    1.71   1.87    6    2   10  74.7  71.6 1019.9 -9.9 -9.999 -99.9 -99.99 -9.99
2020/02/14 17:00 EST    1.72   1.88    5  355    9  74.1  71.6 1020.0 -9.9 -9.999 -99.9 -99.99 -9.99
2020/02/14 17:06 EST    1.73   1.87    6  347   10  73.6  71.6 1020.1 -9.9 -9.999 -99.9 -99.99 -9.99
2020/02/14 17:12 EST    1.74   1.86    8  355   11  73.2  71.6 1020.1 -9.9 -9.999 -99.9 -99.99 -9.99
2020/02/14 17:18 EST    1.75   1.87    6  333   11  72.7  71.6 1020.2 -9.9 -9.999 -99.9 -99.99 -9.99
2020/02/14 17:24 EST    1.75   1.87    8  356   12  72.0  71.6 1020.3 -9.9 -9.999 -99.9 -99.99 -9.99
2020/02/14 17:30 EST    1.76   1.87    8  335   12  71.4  71.6 1020.5 -9.9 -9.999 -99.9 -99.99 -9.99
2020/02/14 17:36 EST    1.76   1.87    9  338   13  70.5  71.6 1020.6 -9.9 -9.999 -99.9 -99.99 -9.99
2020/02/14 17:42 EST    1.76   1.86    7  339   13  69.4  71.4 1020.7 -9.9 -9.999 -99.9 -99.99 -9.99
2020/02/14 17:48 EST    1.76   1.85    7  350   13  68.9  71.4 1020.8 -9.9 -9.999 -99.9 -99.99 -9.99
2020/02/14 17:54 EST    1.76   1.84    8  334   12  68.0  71.4 1020.9 -9.9 -9.999 -99.9 -99.99 -9.99
2020/02/14 18:00 EST    1.75   1.83    9  340   12  67.8  71.4 1020.9 -9.9 -9.999 -99.9 -99.99 -9.99
2020/02/14 18:06 EST    1.75   1.83    5  347   11  68.0  71.4 1020.8 -9.9 -9.999 -99.9 -99.99 -9.99
2020/02/14 18:12 EST    1.74   1.82    6  336   10  68.0  71.4 1020.9 -9.9 -9.999 -99.9 -99.99 -9.99
2020/02/14 18:18 EST    1.73   1.81    5  355    9  68.0  71.4 1021.0 -9.9 -9.999 -99.9 -99.99 -9.99
2020/02/14 18:24 EST    1.72   1.83    6  355   11  67.8  71.4 1021.1 -9.9 -9.999 -99.9 -99.99 -9.99
2020/02/14 18:30 EST    1.70   1.82    9    1   13  67.5  71.4 1021.1 -9.9 -9.999 -99.9 -99.99 -9.99
2020/02/14 18:36 EST    1.69   1.80    8  348   14  67.5  71.4 1021.3 -9.9 -9.999 -99.9 -99.99 -9.99
2020/02/14 18:42 EST    1.67   1.78    6  350   12  67.5  71.4 1021.3 -9.9 -9.999 -99.9 -99.99 -9.99
2020/02/14 18:48 EST    1.66   1.77    8  351   11  67.3  71.4 1021.3 -9.9 -9.999 -99.9 -99.99 -9.99
2020/02/14 18:54 EST    1.64   1.73    8  353   11  67.3  71.4 1021.3 -9.9 -9.999 -99.9 -99.99 -9.99
2020/02/14 19:00 EST    1.62   1.70    6  357   12  67.3  71.4 1021.5 -9.9 -9.999 -99.9 -99.99 -9.99
2020/02/14 19:06 EST    1.59   1.68    8  356   12  67.1  71.4 1021.6 -9.9 -9.999 -99.9 -99.99 -9.99
2020/02/14 19:12 EST    1.57   1.65    5  358   10  67.3  71.4 1021.7 -9.9 -9.999 -99.9 -99.99 -9.99
2020/02/14 19:18 EST    1.55   1.62    6  356   10  67.3  71.4 1021.8 -9.9 -9.999 -99.9 -99.99 -9.99
2020/02/14 19:24 EST    1.52   1.58    8    1   11  67.3  71.4 1021.9 -9.9 -9.999 -99.9 -99.99 -9.99
2020/02/14 19:30 EST    1.50   1.55    6  351   11  67.5  71.4 1022.1 -9.9 -9.999 -99.9 -99.99 -9.99
2020/02/14 19:36 EST    1.47   1.52    4  348   10  67.5  71.4 1022.1 -9.9 -9.999 -99.9 -99.99 -9.99
2020/02/14 19:42 EST    1.44   1.46    6    3   10  67.5  71.2 1022.1 -9.9 -9.999 -99.9 -99.99 -9.99
2020/02/14 19:48 EST    1.41   1.43    6    7   10  67.3  71.2 1022.1 -9.9 -9.999 -99.9 -99.99 -9.99
2020/02/14 19:54 EST    1.38   1.39    5    1   10  67.1  71.2 1022.2 -9.9 -9.999 -99.9 -99.99 -9.99
2020/02/14 20:00 EST    1.34   1.34    5    2    8  67.1  71.2 1022.3 -9.9 -9.999 -99.9 -99.99 -9.99
2020/02/14 20:06 EST    1.31   1.31    5   13    9  67.1  71.2 1022.3 -9.9 -9.999 -99.9 -99.99 -9.99
2020/02/14 20:12 EST    1.28   1.28    4    8    9  67.1  71.2 1022.4 -9.9 -9.999 -99.9 -99.99 -9.99
2020/02/14 20:18 EST    1.24   1.24    4   14   10  67.1  71.2 1022.4 -9.9 -9.999 -99.9 -99.99 -9.99
2020/02/14 20:24 EST    1.21   1.20    6    2   10  66.9  71.2 1022.5 -9.9 -9.999 -99.9 -99.99 -9.99
2020/02/14 20:30 EST    1.17   1.17    4    7    7  67.1  71.2 1022.6 -9.9 -9.999 -99.9 -99.99 -9.99
2020/02/14 20:36 EST    1.14   1.13    4   11    8  67.1  71.2 1022.7 -9.9 -9.999 -99.9 -99.99 -9.99
2020/02/14 20:42 EST    1.10   1.09    6   22   10  67.1  71.2 1022.8 -9.9 -9.999 -99.9 -99.99 -9.99
2020/02/14 20:48 EST    1.06   1.04   10   27   13  66.9  71.2 1022.9 -9.9 -9.999 -99.9 -99.99 -9.99
2020/02/14 20:54 EST    1.02   1.00    9   28   13  67.3  71.2 1023.0 -9.9 -9.999 -99.9 -99.99 -9.99
2020/02/14 21:00 EST    0.99   0.96    9   21   13  67.1  71.2 1023.1 -9.9 -9.999 -99.9 -99.99 -9.99
2020/02/14 21:06 EST    0.95   0.92   10   25   14  66.7  71.2 1023.2 -9.9 -9.999 -99.9 -99.99 -9.99
2020/02/14 21:12 EST    0.91   0.88    8   31   15  66.7  71.2 1023.3 -9.9 -9.999 -99.9 -99.99 -9.99
2020/02/14 21:18 EST    0.87   0.84   11   32   14  66.2  71.2 1023.3 -9.9 -9.999 -99.9 -99.99 -9.99
2020/02/14 21:24 EST    0.83   0.80   11   36   14  66.2  71.2 1023.4 -9.9 -9.999 -99.9 -99.99 -9.99
2020/02/14 21:30 EST    0.79   0.75   12   36   16  65.8  71.2 1023.5 -9.9 -9.999 -99.9 -99.99 -9.99
2020/02/14 21:36 EST    0.76   0.71   10   36   16  66.0  71.2 1023.5 -9.9 -9.999 -99.9 -99.99 -9.99
2020/02/14 21:42 EST    0.72   0.68    9   34   14  65.8  71.2 1023.5 -9.9 -9.999 -99.9 -99.99 -9.99
2020/02/14 21:48 EST    0.68   0.64    7   31   14  65.7  71.2 1023.6 -9.9 -9.999 -99.9 -99.99 -9.99
2020/02/14 21:54 EST    0.64   0.60   11   43   15  65.8  71.2 1023.6 -9.9 -9.999 -99.9 -99.99 -9.99
2020/02/14 22:00 EST    0.60   0.56    9   29   14  65.5  71.2 1023.7 -9.9 -9.999 -99.9 -99.99 -9.99
2020/02/14 22:06 EST    0.57   0.52    9   27   14  65.5  71.1 1023.8 -9.9 -9.999 -99.9 -99.99 -9.99
2020/02/14 22:12 EST    0.53   0.49    8   32   13  65.3  71.1 1023.9 -9.9 -9.999 -99.9 -99.99 -9.99
2020/02/14 22:18 EST    0.49   0.44   10   25   14  64.9  71.1 1023.9 -9.9 -9.999 -99.9 -99.99 -9.99
2020/02/14 22:24 EST    0.46   0.39    8   35   14  65.1  71.1 1023.9 -9.9 -9.999 -99.9 -99.99 -9.99
2020/02/14 22:30 EST    0.42   0.35   10   28   15  64.8  71.1 1023.9 -9.9 -9.999 -99.9 -99.99 -9.99
2020/02/14 22:36 EST    0.39   0.33   15   41   19  64.4  71.1 1024.0 -9.9 -9.999 -99.9 -99.99 -9.99
2020/02/14 22:42 EST    0.36   0.29   16   42   20  63.3  71.1 1024.1 -9.9 -9.999 -99.9 -99.99 -9.99
2020/02/14 22:48 EST    0.33   0.25   17   43   20  63.3  71.1 1024.2 -9.9 -9.999 -99.9 -99.99 -9.99
2020/02/14 22:54 EST    0.29   0.20   12   36   17  63.3  71.1 1024.2 -9.9 -9.999 -99.9 -99.99 -9.99
2020/02/14 23:00 EST    0.26   0.17   15   44   18  63.5  71.1 1024.2 -9.9 -9.999 -99.9 -99.99 -9.99
2020/02/14 23:06 EST    0.24   0.15   15   42   19  63.5  71.1 1024.2 -9.9 -9.999 -99.9 -99.99 -9.99
2020/02/14 23:12 EST    0.21   0.11   14   43   18  63.3  71.1 1024.3 -9.9 -9.999 -99.9 -99.99 -9.99
2020/02/14 23:18 EST    0.18   0.07   13   43   18  63.1  71.1 1024.3 -9.9 -9.999 -99.9 -99.99 -9.99
2020/02/14 23:24 EST    0.16   0.03   11   22   15  62.6  71.1 1024.2 -9.9 -9.999 -99.9 -99.99 -9.99
2020/02/14 23:30 EST    0.13   0.01    9   28   15  62.8  71.1 1024.1 -9.9 -9.999 -99.9 -99.99 -9.99
2020/02/14 23:36 EST    0.11  -0.02   14   40   17  62.2  71.1 1024.1 -9.9 -9.999 -99.9 -99.99 -9.99
2020/02/14 23:42 EST    0.09  -0.05   11   36   18  62.1  70.9 1024.1 -9.9 -9.999 -99.9 -99.99 -9.99
2020/02/14 23:48 EST    0.07  -0.08   12   35   16  62.1  70.9 1024.1 -9.9 -9.999 -99.9 -99.99 -9.99
2020/02/14 23:54 EST    0.05  -0.11   15   47   21  61.7  70.9 1024.2 -9.9 -9.999 -99.9 -99.99 -9.99
2020/02/15 00:00 EST    0.03  -0.14   14   47   19  61.5  70.9 1024.2 -9.9 -9.999 -99.9 -99.99 -9.99
2020/02/15 00:06 EST    0.01  -0.16   11   46   19  61.5  70.9 1024.2 -9.9 -9.999 -99.9 -99.99 -9.99
2020/02/15 00:12 EST    0.00  -0.18   13   38   19  60.8  70.9 1024.3 -9.9 -9.999 -99.9 -99.99 -9.99
2020/02/15 00:18 EST   -0.01  -0.21   13   37   19  60.6  70.9 1024.2 -9.9 -9.999 -99.9 -99.99 -9.99
2020/02/15 00:24 EST   -0.02  -0.24   15   40   20  60.1  70.9 1024.2 -9.9 -9.999 -99.9 -99.99 -9.99
2020/02/15 00:30 EST   -0.03  -0.25   17   52   21  59.5  70.9 1024.2 -9.9 -9.999 -99.9 -99.99 -9.99
2020/02/15 00:36 EST   -0.04  -0.28   14   47   20  60.1  70.9 1024.2 -9.9 -9.999 -99.9 -99.99 -9.99
2020/02/15 00:42 EST   -0.05  -0.28   13   47   19  60.4  70.9 1024.2 -9.9 -9.999 -99.9 -99.99 -9.99
2020/02/15 00:48 EST   -0.05  -0.31   12   43   20  60.6  70.9 1024.2 -9.9 -9.999 -99.9 -99.99 -9.99
2020/02/15 00:54 EST   -0.06  -0.33   14   35   17  60.3  70.9 1024.1 -9.9 -9.999 -99.9 -99.99 -9.99
2020/02/15 01:00 EST   -0.06  -0.35   17   41   21  60.4  70.9 1024.1 -9.9 -9.999 -99.9 -99.99 -9.99
2020/02/15 01:06 EST   -0.06  -0.36   16   45   21  60.3  70.9 1024.1 -9.9 -9.999 -99.9 -99.99 -9.99
2020/02/15 01:12 EST   -0.06  -0.40   15   41   20  60.1  70.7 1024.1 -9.9 -9.999 -99.9 -99.99 -9.99
2020/02/15 01:18 EST   -0.05  -0.42   12   33   19  60.1  70.7 1024.1 -9.9 -9.999 -99.9 -99.99 -9.99
2020/02/15 01:24 EST   -0.05  -0.45   13   40   18  60.4  70.7 1024.2 -9.9 -9.999 -99.9 -99.99 -9.99
2020/02/15 01:30 EST   -0.04  -0.47   15   43   19  60.4  70.7 1024.1 -9.9 -9.999 -99.9 -99.99 -9.99
2020/02/15 01:36 EST   -0.03  -0.46   12   50   19  60.4  70.7 1024.1 -9.9 -9.999 -99.9 -99.99 -9.99
2020/02/15 01:42 EST   -0.02  -0.46   13   36   17  60.3  70.7 1024.2 -9.9 -9.999 -99.9 -99.99 -9.99
2020/02/15 01:48 EST   -0.01  -0.47   11   40   16  60.4  70.7 1024.1 -9.9 -9.999 -99.9 -99.99 -9.99
2020/02/15 01:54 EST   -0.00  -0.45   11   40   19  60.6  70.7 1024.2 -9.9 -9.999 -99.9 -99.99 -9.99
2020/02/15 02:00 EST    0.01  -0.46   14   47   18  60.3  70.7 1024.1 -9.9 -9.999 -99.9 -99.99 -9.99
2020/02/15 02:06 EST    0.03  -0.46   14   51   21  60.4  70.7 1024.1 -9.9 -9.999 -99.9 -99.99 -9.99
2020/02/15 02:12 EST    0.04  -0.46   15   46   19  60.3  70.5 1024.0 -9.9 -9.999 -99.9 -99.99 -9.99
2020/02/15 02:18 EST    0.06  -0.47   15   43   19  60.3  70.5 1024.0 -9.9 -9.999 -99.9 -99.99 -9.99
2020/02/15 02:24 EST    0.07  -0.47   14   42   20  60.3  70.5 1023.9 -9.9 -9.999 -99.9 -99.99 -9.99
2020/02/15 02:30 EST    0.09  -0.46   15   43   18  60.1  70.5 1023.7 -9.9 -9.999 -99.9 -99.99 -9.99
2020/02/15 02:36 EST    0.11  -0.44   12   43   20  60.3  70.5 1023.6 -9.9 -9.999 -99.9 -99.99 -9.99
2020/02/15 02:42 EST    0.13  -0.43   12   46   18  60.3  70.5 1023.6 -9.9 -9.999 -99.9 -99.99 -9.99
2020/02/15 02:48 EST    0.16  -0.43   12   43   17  60.1  70.5 1023.6 -9.9 -9.999 -99.9 -99.99 -9.99
2020/02/15 02:54 EST    0.18  -0.43   13   43   19  60.1  70.7 1023.6 -9.9 -9.999 -99.9 -99.99 -9.99
2020/02/15 03:00 EST    0.20  -0.41   14   45   19  60.1  70.7 1023.5 -9.9 -9.999 -99.9 -99.99 -9.99
2020/02/15 03:06 EST    0.22  -0.41   13   48   17  59.9  70.7 1023.5 -9.9 -9.999 -99.9 -99.99 -9.99
2020/02/15 03:12 EST    0.25  -0.39   12   45   17  60.1  70.7 1023.5 -9.9 -9.999 -99.9 -99.99 -9.99
2020/02/15 03:18 EST    0.27  -0.36   14   49   16  60.1  70.7 1023.4 -9.9 -9.999 -99.9 -99.99 -9.99
2020/02/15 03:24 EST    0.30  -0.35   14   50   18  60.1  70.7 1023.5 -9.9 -9.999 -99.9 -99.99 -9.99
2020/02/15 03:30 EST    0.32  -0.33   15   56   20  60.3  70.7 1023.4 -9.9 -9.999 -99.9 -99.99 -9.99
2020/02/15 03:36 EST    0.35  -0.31   15   51   20  60.1  70.7 1023.4 -9.9 -9.999 -99.9 -99.99 -9.99
2020/02/15 03:42 EST    0.37  -0.30   11   47   19  60.3  70.7 1023.4 -9.9 -9.999 -99.9 -99.99 -9.99
2020/02/15 03:48 EST    0.40  -0.28   14   53   18  59.9  70.7 1023.5 -9.9 -9.999 -99.9 -99.99 -9.99
2020/02/15 03:54 EST    0.43  -0.28   14   46   18  59.9  70.7 1023.4 -9.9 -9.999 -99.9 -99.99 -9.99
2020/02/15 04:00 EST    0.45  -0.26   15   53   19  60.1  70.7 1023.4 -9.9 -9.999 -99.9 -99.99 -9.99
2020/02/15 04:06 EST    0.48  -0.25   15   55   19  59.9  70.7 1023.4 -9.9 -9.999 -99.9 -99.99 -9.99
2020/02/15 04:12 EST    0.51  -0.23   13   48   19  59.9  70.7 1023.4 -9.9 -9.999 -99.9 -99.99 -9.99
2020/02/15 04:18 EST    0.53  -0.22   13   46   20  60.1  70.7 1023.4 -9.9 -9.999 -99.9 -99.99 -9.99
2020/02/15 04:24 EST    0.56  -0.19   13   50   18  59.9  70.7 1023.4 -9.9 -9.999 -99.9 -99.99 -9.99
2020/02/15 04:30 EST    0.58  -0.18   13   42   18  60.1  70.7 1023.4 -9.9 -9.999 -99.9 -99.99 -9.99
2020/02/15 04:36 EST    0.61  -0.19   14   48   18  59.9  70.7 1023.5 -9.9 -9.999 -99.9 -99.99 -9.99
2020/02/15 04:42 EST    0.63  -0.14   12   46   19  59.9  70.7 1023.5 -9.9 -9.999 -99.9 -99.99 -9.99
2020/02/15 04:48 EST    0.66  -0.15   12   50   19  59.9  70.7 1023.5 -9.9 -9.999 -99.9 -99.99 -9.99
2020/02/15 04:54 EST    0.68  -0.16   13   50   17  59.9  70.7 1023.4 -9.9 -9.999 -99.9 -99.99 -9.99
2020/02/15 05:00 EST    0.70  -0.11   16   44   20  59.5  70.7 1023.4 -9.9 -9.999 -99.9 -99.99 -9.99
2020/02/15 05:06 EST    0.73  -0.10   12   43   17  59.7  70.7 1023.4 -9.9 -9.999 -99.9 -99.99 -9.99
2020/02/15 05:12 EST    0.75  -0.10   14   47   18  59.5  70.7 1023.5 -9.9 -9.999 -99.9 -99.99 -9.99
2020/02/15 05:18 EST    0.77  -0.05    8   31   16  59.0  70.5 1023.5 -9.9 -9.999 -99.9 -99.99 -9.99
2020/02/15 05:24 EST    0.79  -0.05    8   33   13  58.6  70.5 1023.5 -9.9 -9.999 -99.9 -99.99 -9.99
2020/02/15 05:30 EST    0.81  -0.02   15   45   18  59.0  70.5 1023.7 -9.9 -9.999 -99.9 -99.99 -9.99
2020/02/15 05:36 EST    0.83   0.02   16   49   19  59.0  70.5 1023.7 -9.9 -9.999 -99.9 -99.99 -9.99
2020/02/15 05:42 EST    0.85   0.04   12   51   19  59.0  70.5 1023.7 -9.9 -9.999 -99.9 -99.99 -9.99
2020/02/15 05:48 EST    0.87   0.03   14   48   20  58.8  70.5 1023.7 -9.9 -9.999 -99.9 -99.99 -9.99
2020/02/15 05:54 EST    0.88   0.06   14   55   20  59.0  70.5 1023.8 -9.9 -9.999 -99.9 -99.99 -9.99
2020/02/15 06:00 EST    0.90   0.09   12   50   17  59.0  70.5 1023.9 -9.9 -9.999 -99.9 -99.99 -9.99
2020/02/15 06:06 EST    0.91   0.11   14   48   17  59.2  70.5 1023.9 -9.9 -9.999 -99.9 -99.99 -9.99
2020/02/15 06:12 EST    0.93   0.13   12   48   16  59.4  70.5 1023.9 -9.9 -9.999 -99.9 -99.99 -9.99
2020/02/15 06:18 EST    0.94   0.16   13   45   18  59.2  70.5 1024.0 -9.9 -9.999 -99.9 -99.99 -9.99
2020/02/15 06:24 EST    0.95   0.17   14   48   18  59.0  70.5 1024.1 -9.9 -9.999 -99.9 -99.99 -9.99
2020/02/15 06:30 EST    0.96   0.18   13   46   17  58.8  70.3 1024.2 -9.9 -9.999 -99.9 -99.99 -9.99
2020/02/15 06:36 EST    0.98   0.19   13   47   17  58.6  70.3 1024.2 -9.9 -9.999 -99.9 -99.99 -9.99
2020/02/15 06:42 EST    0.98   0.21   13   48   19  58.8  70.3 1024.3 -9.9 -9.999 -99.9 -99.99 -9.99
2020/02/15 06:48 EST    0.99   0.22   12   40   16  58.5  70.3 1024.3 -9.9 -9.999 -99.9 -99.99 -9.99
2020/02/15 06:54 EST    1.00   0.21   11   40   15  57.9  70.3 1024.3 -9.9 -9.999 -99.9 -99.99 -9.99
2020/02/15 07:00 EST    1.01   0.22   12   40   17  57.9  70.3 1024.4 -9.9 -9.999 -99.9 -99.99 -9.99
2020/02/15 07:06 EST    1.01   0.24   10   37   14  57.9  70.3 1024.5 -9.9 -9.999 -99.9 -99.99 -9.99
2020/02/15 07:12 EST    1.02   0.24   11   35   15  57.6  70.3 1024.5 -9.9 -9.999 -99.9 -99.99 -9.99
2020/02/15 07:18 EST    1.02   0.26    9   32   13  57.7  70.3 1024.5 -9.9 -9.999 -99.9 -99.99 -9.99
2020/02/15 07:24 EST    1.02   0.28   11   36   16  57.9  70.3 1024.5 -9.9 -9.999 -99.9 -99.99 -9.99
2020/02/15 07:30 EST    1.03   0.28   11   35   17  57.7  70.3 1024.5 -9.9 -9.999 -99.9 -99.99 -9.99
2020/02/15 07:36 EST    1.03   0.30   11   41   16  57.9  70.3 1024.5 -9.9 -9.999 -99.9 -99.99 -9.99
2020/02/15 07:42 EST    1.03   0.31    9   33   15  57.9  70.3 1024.5 -9.9 -9.999 -99.9 -99.99 -9.99
2020/02/15 07:48 EST    1.03   0.32   11   39   16  58.1  70.3 1024.6 -9.9 -9.999 -99.9 -99.99 -9.99
2020/02/15 07:54 EST    1.02   0.33   12   39   16  58.3  70.3 1024.7 -9.9 -9.999 -99.9 -99.99 -9.99
2020/02/15 08:00 EST    1.02   0.34   11   41   15  58.5  70.3 1024.7 -9.9 -9.999 -99.9 -99.99 -9.99
2020/02/15 08:06 EST    1.02   0.34   12   42   15  58.8  70.3 1024.7 -9.9 -9.999 -99.9 -99.99 -9.99
2020/02/15 08:12 EST    1.01   0.34   10   37   13  58.8  70.2 1024.7 -9.9 -9.999 -99.9 -99.99 -9.99
2020/02/15 08:18 EST    1.01   0.34   11   39   16  59.0  70.2 1024.7 -9.9 -9.999 -99.9 -99.99 -9.99
2020/02/15 08:24 EST    1.00   0.34   12   38   17  59.4  70.2 1024.7 -9.9 -9.999 -99.9 -99.99 -9.99
2020/02/15 08:30 EST    1.00   0.35   12   44   16  59.9  70.2 1024.8 -9.9 -9.999 -99.9 -99.99 -9.99
2020/02/15 08:36 EST    0.99   0.35   13   47   18  60.1  70.2 1024.9 -9.9 -9.999 -99.9 -99.99 -9.99
2020/02/15 08:42 EST    0.98   0.36   16   53   20  59.7  70.2 1024.9 -9.9 -9.999 -99.9 -99.99 -9.99
2020/02/15 08:48 EST    0.97   0.36   13   51   18  60.1  70.2 1024.9 -9.9 -9.999 -99.9 -99.99 -9.99
2020/02/15 08:54 EST    0.97   0.35   12   44   18  60.4  70.2 1024.9 -9.9 -9.999 -99.9 -99.99 -9.99
2020/02/15 09:00 EST    0.96   0.36   14   50   19  60.4  70.2 1024.9 -9.9 -9.999 -99.9 -99.99 -9.99
2020/02/15 09:06 EST    0.95   0.35   14   48   19  60.6  70.2 1024.9 -9.9 -9.999 -99.9 -99.99 -9.99
2020/02/15 09:12 EST    0.94   0.35   14   53   19  60.6  70.2 1025.0 -9.9 -9.999 -99.9 -99.99 -9.99
2020/02/15 09:18 EST    0.93   0.36   13   52   19  60.6  70.2 1024.9 -9.9 -9.999 -99.9 -99.99 -9.99
2020/02/15 09:24 EST    0.92   0.36   13   50   19  61.2  70.2 1025.0 -9.9 -9.999 -99.9 -99.99 -9.99
2020/02/15 09:30 EST    0.91   0.36   14   49   19  61.0  70.2 1025.0 -9.9 -9.999 -99.9 -99.99 -9.99
2020/02/15 09:36 EST    0.89   0.36   16   52   18  61.3  70.2 1025.0 -9.9 -9.999 -99.9 -99.99 -9.99
2020/02/15 09:42 EST    0.88   0.37   15   52   18  61.7  70.0 1025.0 -9.9 -9.999 -99.9 -99.99 -9.99
2020/02/15 09:48 EST    0.87   0.37   16   53   19  61.9  70.0 1025.0 -9.9 -9.999 -99.9 -99.99 -9.99
2020/02/15 09:54 EST    0.86   0.36   12   48   17  62.8  70.0 1025.1 -9.9 -9.999 -99.9 -99.99 -9.99
2020/02/15 10:00 EST    0.85   0.36   12   53   17  62.6  70.0 1025.1 -9.9 -9.999 -99.9 -99.99 -9.99
2020/02/15 10:06 EST    0.84   0.37   12   50   19  62.8  70.0 1025.1 -9.9 -9.999 -99.9 -99.99 -9.99
2020/02/15 10:12 EST    0.83   0.36   13   55   16  63.0  70.0 1025.1 -9.9 -9.999 -99.9 -99.99 -9.99
2020/02/15 10:18 EST    0.82   0.36   13   50   16  63.3  70.0 1025.0 -9.9 -9.999 -99.9 -99.99 -9.99
2020/02/15 10:24 EST    0.81   0.36   11   47   15  64.2  70.0 1025.0 -9.9 -9.999 -99.9 -99.99 -9.99
2020/02/15 10:30 EST    0.80   0.36   10   46   16  64.6  70.0 1025.0 -9.9 -9.999 -99.9 -99.99 -9.99
2020/02/15 10:36 EST    0.79   0.36   12   55   16  64.2  70.0 1024.9 -9.9 -9.999 -99.9 -99.99 -9.99
2020/02/15 10:42 EST    0.78   0.37   12   55   14  64.6  70.0 1024.9 -9.9 -9.999 -99.9 -99.99 -9.99
2020/02/15 10:48 EST    0.77   0.38   11   57   13  65.3  70.2 1024.8 -9.9 -9.999 -99.9 -99.99 -9.99
2020/02/15 10:54 EST    0.76   0.39   11   53   14  65.7  70.2 1024.7 -9.9 -9.999 -99.9 -99.99 -9.99
2020/02/15 11:00 EST    0.75   0.40    9   62   13  66.6  70.2 1024.7 -9.9 -9.999 -99.9 -99.99 -9.99
2020/02/15 11:06 EST    0.74   0.39   10   68   14  67.6  70.2 1024.6 -9.9 -9.999 -99.9 -99.99 -9.99
2020/02/15 11:12 EST    0.74   0.39   10   72   15  68.0  70.2 1024.6 -9.9 -9.999 -99.9 -99.99 -9.99
2020/02/15 11:18 EST    0.73   0.40    8   65   13  68.2  70.2 1024.6 -9.9 -9.999 -99.9 -99.99 -9.99
2020/02/15 11:24 EST    0.73   0.39    8   67   13  68.5  70.2 1024.5 -9.9 -9.999 -99.9 -99.99 -9.99
2020/02/15 11:30 EST    0.72   0.39    9   61   13  68.2  70.2 1024.5 -9.9 -9.999 -99.9 -99.99 -9.99
2020/02/15 11:36 EST    0.72   0.41   10   56   13  68.0  70.2 1024.5 -9.9 -9.999 -99.9 -99.99 -9.99
2020/02/15 11:42 EST    0.72   0.43    7   68   12  69.4  70.2 1024.4 -9.9 -9.999 -99.9 -99.99 -9.99
2020/02/15 11:48 EST    0.71   0.43    8   67   12  70.0  70.3 1024.4 -9.9 -9.999 -99.9 -99.99 -9.99
2020/02/15 11:54 EST    0.71   0.44    7   65   11  70.5  70.3 1024.3 -9.9 -9.999 -99.9 -99.99 -9.99
2020/02/15 12:00 EST    0.71   0.46    6   69   11  71.1  70.3 1024.2 -9.9 -9.999 -99.9 -99.99 -9.99
2020/02/15 12:06 EST    0.72   0.48    8   68   11  70.9  70.3 1024.1 -9.9 -9.999 -99.9 -99.99 -9.99
2020/02/15 12:12 EST    0.72   0.49    7   68   10  71.2  70.3 1024.1 -9.9 -9.999 -99.9 -99.99 -9.99
2020/02/15 12:18 EST    0.72   0.51    6   62    8  70.9  70.3 1024.0 -9.9 -9.999 -99.9 -99.99 -9.99
2020/02/15 12:24 EST    0.73   0.53    5   64    9  71.1  70.3 1023.9 -9.9 -9.999 -99.9 -99.99 -9.99
2020/02/15 12:30 EST    0.73   0.55    5   64    8  71.6  70.3 1023.8 -9.9 -9.999 -99.9 -99.99 -9.99
2020/02/15 12:36 EST    0.74   0.57    5   66    8  72.3  70.3 1023.7 -9.9 -9.999 -99.9 -99.99 -9.99
2020/02/15 12:42 EST    0.75   0.61    6   67    9  72.9  70.3 1023.6 -9.9 -9.999 -99.9 -99.99 -9.99
2020/02/15 12:48 EST    0.76   0.64    7   61    8  72.3  70.3 1023.5 -9.9 -9.999 -99.9 -99.99 -9.99
2020/02/15 12:54 EST    0.77   0.67    7   59   10  72.1  70.3 1023.4 -9.9 -9.999 -99.9 -99.99 -9.99
2020/02/15 13:00 EST    0.78   0.71    7   62    9  72.5  70.3 1023.3 -9.9 -9.999 -99.9 -99.99 -9.99
2020/02/15 13:06 EST    0.79   0.74    6   63    9  73.0  70.3 1023.2 -9.9 -9.999 -99.9 -99.99 -9.99
2020/02/15 13:12 EST    0.81   0.75    6   61    9  72.9  70.5 1023.1 -9.9 -9.999 -99.9 -99.99 -9.99
2020/02/15 13:18 EST    0.82   0.79    6   61    8  73.2  70.5 1023.0 -9.9 -9.999 -99.9 -99.99 -9.99
2020/02/15 13:24 EST    0.84   0.82    6   58    9  72.9  70.5 1022.8 -9.9 -9.999 -99.9 -99.99 -9.99
2020/02/15 13:30 EST    0.86   0.84    6   60    8  73.4  70.5 1022.7 -9.9 -9.999 -99.9 -99.99 -9.99
2020/02/15 13:36 EST    0.88   0.87    6   64    9  73.8  70.5 1022.6 -9.9 -9.999 -99.9 -99.99 -9.99
2020/02/15 13:42 EST    0.90   0.90    5   61    7  73.9  70.5 1022.5 -9.9 -9.999 -99.9 -99.99 -9.99
2020/02/15 13:48 EST    0.92   0.93    5   58    7  73.8  70.5 1022.4 -9.9 -9.999 -99.9 -99.99 -9.99
2020/02/15 13:54 EST    0.94   0.96    7   55    8  73.9  70.5 1022.4 -9.9 -9.999 -99.9 -99.99 -9.99
2020/02/15 14:00 EST    0.96   1.00    7   56    9  73.9  70.5 1022.4 -9.9 -9.999 -99.9 -99.99 -9.99
2020/02/15 14:06 EST    0.99   1.04    7   57    9  73.8  70.5 1022.2 -9.9 -9.999 -99.9 -99.99 -9.99
2020/02/15 14:12 EST    1.01   1.07    7   57    8  73.8  70.7 1022.1 -9.9 -9.999 -99.9 -99.99 -9.99
2020/02/15 14:18 EST    1.03   1.10    5   72    9  75.2  70.7 1022.1 -9.9 -9.999 -99.9 -99.99 -9.99
2020/02/15 14:24 EST    1.06   1.12    5   76    9  75.7  70.9 1022.0 -9.9 -9.999 -99.9 -99.99 -9.99
2020/02/15 14:30 EST    1.09   1.16    5   75    8  75.9  70.9 1022.1 -9.9 -9.999 -99.9 -99.99 -9.99
2020/02/15 14:36 EST    1.11   1.18    4   75    7  75.9  71.1 1022.0 -9.9 -9.999 -99.9 -99.99 -9.99
2020/02/15 14:42 EST    1.14   1.20    6   70    8  75.4  71.1 1022.0 -9.9 -9.999 -99.9 -99.99 -9.99
2020/02/15 14:48 EST    1.17   1.23    5   74    8  75.4  71.1 1022.0 -9.9 -9.999 -99.9 -99.99 -9.99
2020/02/15 14:54 EST    1.20   1.25    4   76    6  75.9  71.2 1022.0 -9.9 -9.999 -99.9 -99.99 -9.99
2020/02/15 15:00 EST    1.23   1.29    4   73    6  76.1  71.2 1022.0 -9.9 -9.999 -99.9 -99.99 -9.99
2020/02/15 15:06 EST    1.25   1.34    4   71    7  76.5  71.4 1021.9 -9.9 -9.999 -99.9 -99.99 -9.99
2020/02/15 15:12 EST    1.28   1.36    4   56    6  75.7  71.4 1021.8 -9.9 -9.999 -99.9 -99.99 -9.99
2020/02/15 15:18 EST    1.31   1.39    5   58    6  75.4  71.4 1021.7 -9.9 -9.999 -99.9 -99.99 -9.99
2020/02/15 15:24 EST    1.34   1.43    6   54    7  75.6  71.2 1021.6 -9.9 -9.999 -99.9 -99.99 -9.99
2020/02/15 15:30 EST    1.37   1.46    4   59    7  76.1  71.2 1021.6 -9.9 -9.999 -99.9 -99.99 -9.99
2020/02/15 15:36 EST    1.40   1.50    4   61    6  76.5  71.2 1021.5 -9.9 -9.999 -99.9 -99.99 -9.99
2020/02/15 15:42 EST    1.43   1.53    5   54    8  76.3  71.1 1021.6 -9.9 -9.999 -99.9 -99.99 -9.99
2020/02/15 15:48 EST    1.45   1.56    5   59    6  76.5  71.2 1021.6 -9.9 -9.999 -99.9 -99.99 -9.99
2020/02/15 15:54 EST    1.48   1.58    5   59    7  76.6  71.1 1021.6 -9.9 -9.999 -99.9 -99.99 -9.99
2020/02/15 16:00 EST    1.51   1.62    4   57    6  77.2  71.1 1021.6 -9.9 -9.999 -99.9 -99.99 -9.99
2020/02/15 16:06 EST    1.54   1.65    5   56    6  77.2  71.1 1021.6 -9.9 -9.999 -99.9 -99.99 -9.99
2020/02/15 16:12 EST    1.56   1.68    4   46    6  77.5  71.1 1021.5 -9.9 -9.999 -99.9 -99.99 -9.99
2020/02/15 16:18 EST    1.59   1.72    4   55    7  77.5  71.1 1021.4 -9.9 -9.999 -99.9 -99.99 -9.99
2020/02/15 16:24 EST    1.61   1.76    4   47    8  77.7  71.1 1021.4 -9.9 -9.999 -99.9 -99.99 -9.99
2020/02/15 16:30 EST    1.64   1.78    5   51    7  77.5  71.2 1021.4 -9.9 -9.999 -99.9 -99.99 -9.99
2020/02/15 16:36 EST    1.66   1.80    4   51    6  77.7  71.1 1021.4 -9.9 -9.999 -99.9 -99.99 -9.99
2020/02/15 16:42 EST    1.68   1.82    5   45    6  77.5  71.1 1021.4 -9.9 -9.999 -99.9 -99.99 -9.99
2020/02/15 16:48 EST    1.70   1.85    5   51    7  77.9  71.1 1021.5 -9.9 -9.999 -99.9 -99.99 -9.99
2020/02/15 16:54 EST    1.72   1.88    4   47    7  77.9  71.1 1021.4 -9.9 -9.999 -99.9 -99.99 -9.99
2020/02/15 17:00 EST    1.74   1.91    5   53    6  77.0  71.1 1021.5 -9.9 -9.999 -99.9 -99.99 -9.99
2020/02/15 17:06 EST    1.76   1.94    4   52    6  76.8  71.1 1021.4 -9.9 -9.999 -99.9 -99.99 -9.99
2020/02/15 17:12 EST    1.77   1.96    4   53    6  76.6  71.1 1021.5 -9.9 -9.999 -99.9 -99.99 -9.99
2020/02/15 17:18 EST    1.79   1.99    5   53    7  76.5  71.1 1021.5 -9.9 -9.999 -99.9 -99.99 -9.99
2020/02/15 17:24 EST    1.80   2.01    4   46    7  76.5  71.1 1021.5 -9.9 -9.999 -99.9 -99.99 -9.99
2020/02/15 17:30 EST    1.82   2.01    4   49    6  76.5  71.1 1021.4 -9.9 -9.999 -99.9 -99.99 -9.99
2020/02/15 17:36 EST    1.83   2.01    5   51    6  76.5  71.1 1021.4 -9.9 -9.999 -99.9 -99.99 -9.99
2020/02/15 17:42 EST    1.84   2.03    4   50    6  76.3  71.1 1021.4 -9.9 -9.999 -99.9 -99.99 -9.99
2020/02/15 17:48 EST    1.85   2.05    5   54    6  75.6  71.1 1021.4 -9.9 -9.999 -99.9 -99.99 -9.99
2020/02/15 17:54 EST    1.85   2.06    5   59    6  74.8  70.9 1021.4 -9.9 -9.999 -99.9 -99.99 -9.99
2020/02/15 18:00 EST    1.86   2.09    6   57    8  74.3  70.9 1021.4 -9.9 -9.999 -99.9 -99.99 -9.99
2020/02/15 18:06 EST    1.86   2.09    6   59    9  74.1  70.9 1021.4 -9.9 -9.999 -99.9 -99.99 -9.99
2020/02/15 18:12 EST    1.87   2.07    5   63    7  74.1  70.9 1021.4 -9.9 -9.999 -99.9 -99.99 -9.99
2020/02/15 18:18 EST    1.87   2.08    5   62    7  73.8  70.9 1021.5 -9.9 -9.999 -99.9 -99.99 -9.99
2020/02/15 18:24 EST    1.87   2.08    6   68    8  73.6  70.9 1021.4 -9.9 -9.999 -99.9 -99.99 -9.99
2020/02/15 18:30 EST    1.87   2.07    6   68    8  73.4  70.9 1021.4 -9.9 -9.999 -99.9 -99.99 -9.99
2020/02/15 18:36 EST    1.87   2.08    6   73    8  73.0  70.9 1021.4 -9.9 -9.999 -99.9 -99.99 -9.99
2020/02/15 18:42 EST    1.86   2.08    5   73    8  73.0  70.9 1021.4 -9.9 -9.999 -99.9 -99.99 -9.99
2020/02/15 18:48 EST    1.85   2.08    7   68   10  72.9  70.9 1021.5 -9.9 -9.999 -99.9 -99.99 -9.99
2020/02/15 18:54 EST    1.85   2.08    7   68    9  73.0  70.9 1021.4 -9.9 -9.999 -99.9 -99.99 -9.99
2020/02/15 19:00 EST    1.84   2.08    6   67    8  72.7  70.9 1021.5 -9.9 -9.999 -99.9 -99.99 -9.99
2020/02/15 19:06 EST    1.83   2.05    6   62    8  72.5  70.9 1021.5 -9.9 -9.999 -99.9 -99.99 -9.99
2020/02/15 19:12 EST    1.82   2.04    6   66    7  72.3  70.9 1021.6 -9.9 -9.999 -99.9 -99.99 -9.99
2020/02/15 19:18 EST    1.80   2.01    6   66    8  72.5  70.9 1021.7 -9.9 -9.999 -99.9 -99.99 -9.99
2020/02/15 19:24 EST    1.79   2.00    6   65    9  72.3  70.9 1021.7 -9.9 -9.999 -99.9 -99.99 -9.99
2020/02/15 19:30 EST    1.77   1.98    8   59    9  72.3  70.9 1021.8 -9.9 -9.999 -99.9 -99.99 -9.99
2020/02/15 19:36 EST    1.76   1.96    7   59    9  72.3  70.9 1021.9 -9.9 -9.999 -99.9 -99.99 -9.99
2020/02/15 19:42 EST    1.74   1.95    7   59   10  72.1  70.9 1021.8 -9.9 -9.999 -99.9 -99.99 -9.99
2020/02/15 19:48 EST    1.72   1.92    7   67    9  72.3  70.9 1021.8 -9.9 -9.999 -99.9 -99.99 -9.99
2020/02/15 19:54 EST    1.70   1.91    6   63   11  72.3  70.7 1021.9 -9.9 -9.999 -99.9 -99.99 -9.99
2020/02/15 20:00 EST    1.67   1.90    7   62   10  72.3  70.7 1022.0 -9.9 -9.999 -99.9 -99.99 -9.99
2020/02/15 20:06 EST    1.65   1.86    5   62    8  72.0  70.7 1022.0 -9.9 -9.999 -99.9 -99.99 -9.99
2020/02/15 20:12 EST    1.63   1.82    6   66    8  71.8  70.7 1022.1 -9.9 -9.999 -99.9 -99.99 -9.99
2020/02/15 20:18 EST    1.60   1.80    5   64    9  71.8  70.7 1022.1 -9.9 -9.999 -99.9 -99.99 -9.99
2020/02/15 20:24 EST    1.57   1.78    6   67    9  71.8  70.7 1022.1 -9.9 -9.999 -99.9 -99.99 -9.99
2020/02/15 20:30 EST    1.55   1.75    6   67    9  71.6  70.5 1022.1 -9.9 -9.999 -99.9 -99.99 -9.99
2020/02/15 20:36 EST    1.52   1.72    7   73    9  71.4  70.7 1022.0 -9.9 -9.999 -99.9 -99.99 -9.99
2020/02/15 20:42 EST    1.49   1.68    6   75    9  71.2  70.7 1022.0 -9.9 -9.999 -99.9 -99.99 -9.99
2020/02/15 20:48 EST    1.46   1.65    7   76   10  71.2  70.7 1022.0 -9.9 -9.999 -99.9 -99.99 -9.99
2020/02/15 20:54 EST    1.42   1.62    8   75   11  71.1  70.7 1022.1 -9.9 -9.999 -99.9 -99.99 -9.99
2020/02/15 21:00 EST    1.39   1.58    7   73   11  71.1  70.7 1022.1 -9.9 -9.999 -99.9 -99.99 -9.99
2020/02/15 21:06 EST    1.36   1.54    7   74   11  70.9  70.7 1022.2 -9.9 -9.999 -99.9 -99.99 -9.99
2020/02/15 21:12 EST    1.32   1.50    7   72   11  70.9  70.7 1022.3 -9.9 -9.999 -99.9 -99.99 -9.99
2020/02/15 21:18 EST    1.29   1.46    8   73   11  70.7  70.9 1022.3 -9.9 -9.999 -99.9 -99.99 -9.99
2020/02/15 21:24 EST    1.25   1.43    8   73   11  70.7  70.7 1022.3 -9.9 -9.999 -99.9 -99.99 -9.99
2020/02/15 21:30 EST    1.22   1.38    7   70   10  70.7  70.7 1022.4 -9.9 -9.999 -99.9 -99.99 -9.99
2020/02/15 21:36 EST    1.18   1.33    7   68   10  70.5  70.7 1022.3 -9.9 -9.999 -99.9 -99.99 -9.99
2020/02/15 21:42 EST    1.14   1.29    7   65   10  70.3  70.7 1022.3 -9.9 -9.999 -99.9 -99.99 -9.99
2020/02/15 21:48 EST    1.10   1.26    9   72   12  70.3  70.7 1022.3 -9.9 -9.999 -99.9 -99.99 -9.99
2020/02/15 21:54 EST    1.06   1.21    7   70   12  70.3  70.7 1022.4 -9.9 -9.999 -99.9 -99.99 -9.99
2020/02/15 22:00 EST    1.03   1.18    6   70   10  70.3  70.7 1022.3 -9.9 -9.999 -99.9 -99.99 -9.99
2020/02/15 22:06 EST    0.99   1.14    8   75   12  70.2  70.7 1022.3 -9.9 -9.999 -99.9 -99.99 -9.99
2020/02/15 22:12 EST    0.95   1.10    8   72   12  70.2  70.5 1022.4 -9.9 -9.999 -99.9 -99.99 -9.99
2020/02/15 22:18 EST    0.91   1.05    8   70   13  70.0  70.5 1022.4 -9.9 -9.999 -99.9 -99.99 -9.99
2020/02/15 22:24 EST    0.87   1.00    9   70   11  69.8  70.5 1022.3 -9.9 -9.999 -99.9 -99.99 -9.99
2020/02/15 22:30 EST    0.83   0.96    7   72   11  69.8  70.5 1022.3 -9.9 -9.999 -99.9 -99.99 -9.99
2020/02/15 22:36 EST    0.79   0.92    8   73   12  69.6  70.5 1022.3 -9.9 -9.999 -99.9 -99.99 -9.99
2020/02/15 22:42 EST    0.75   0.88    8   70   12  69.4  70.5 1022.3 -9.9 -9.999 -99.9 -99.99 -9.99
2020/02/15 22:48 EST    0.71   0.84    7   72   11  69.4  70.5 1022.3 -9.9 -9.999 -99.9 -99.99 -9.99
2020/02/15 22:54 EST    0.67   0.80    7   69   11  69.3  70.5 1022.2 -9.9 -9.999 -99.9 -99.99 -9.99
2020/02/15 23:00 EST    0.63   0.77    7   71   10  69.1  70.5 1022.3 -9.9 -9.999 -99.9 -99.99 -9.99
2020/02/15 23:06 EST    0.59   0.74    8   69   11  69.1  70.5 1022.3 -9.9 -9.999 -99.9 -99.99 -9.99
2020/02/15 23:12 EST    0.55   0.70    7   69   10  69.1  70.5 1022.3 -9.9 -9.999 -99.9 -99.99 -9.99
2020/02/15 23:18 EST    0.51   0.67    7   71   11  68.9  70.5 1022.2 -9.9 -9.999 -99.9 -99.99 -9.99
2020/02/15 23:24 EST    0.47   0.63    7   71   10  68.9  70.5 1022.3 -9.9 -9.999 -99.9 -99.99 -9.99
2020/02/15 23:30 EST    0.44   0.60    7   71    9  68.7  70.5 1022.2 -9.9 -9.999 -99.9 -99.99 -9.99
2020/02/15 23:36 EST    0.40   0.56    6   73   10  68.7  70.5 1022.3 -9.9 -9.999 -99.9 -99.99 -9.99
2020/02/15 23:42 EST    0.36   0.54    8   73   10  68.7  70.5 1022.3 -9.9 -9.999 -99.9 -99.99 -9.99
2020/02/15 23:48 EST    0.33   0.50    6   74   10  68.9  70.5 1022.3 -9.9 -9.999 -99.9 -99.99 -9.99
2020/02/15 23:54 EST    0.29   0.47    7   73    9  68.7  70.5 1022.2 -9.9 -9.999 -99.9 -99.99 -9.99
2020/02/16 00:00 EST    0.26   0.43    6   63    8  68.7  70.5 1022.2 -9.9 -9.999 -99.9 -99.99 -9.99
2020/02/16 00:06 EST    0.23   0.41    7   66   10  68.5  70.5 1022.2 -9.9 -9.999 -99.9 -99.99 -9.99
2020/02/16 00:12 EST    0.19   0.38    7   73   12  68.5  70.5 1022.1 -9.9 -9.999 -99.9 -99.99 -9.99
2020/02/16 00:18 EST    0.16   0.35    8   74   11  68.4  70.5 1022.1 -9.9 -9.999 -99.9 -99.99 -9.99
2020/02/16 00:24 EST    0.13   0.33    6   66   11  68.4  70.5 1022.1 -9.9 -9.999 -99.9 -99.99 -9.99
2020/02/16 00:30 EST    0.10   0.30    7   70   10  68.4  70.5 1022.1 -9.9 -9.999 -99.9 -99.99 -9.99
2020/02/16 00:36 EST    0.08   0.27    6   70   10  68.4  70.5 1022.1 -9.9 -9.999 -99.9 -99.99 -9.99
2020/02/16 00:42 EST    0.05   0.25    8   74   11  68.2  70.5 1022.0 -9.9 -9.999 -99.9 -99.99 -9.99
2020/02/16 00:48 EST    0.02   0.22    8   75   11  68.2  70.5 1021.9 -9.9 -9.999 -99.9 -99.99 -9.99
2020/02/16 00:54 EST   -0.00   0.19    7   71   10  68.2  70.5 1021.8 -9.9 -9.999 -99.9 -99.99 -9.99
2020/02/16 01:00 EST   -0.03   0.17    7   59    9  68.2  70.5 1021.8 -9.9 -9.999 -99.9 -99.99 -9.99
2020/02/16 01:06 EST   -0.05   0.14    7   59    9  68.0  70.5 1021.9 -9.9 -9.999 -99.9 -99.99 -9.99
2020/02/16 01:12 EST   -0.07   0.14    7   61    9  68.0  70.5 1021.9 -9.9 -9.999 -99.9 -99.99 -9.99
2020/02/16 01:18 EST   -0.09   0.12    6   64    8  68.0  70.5 1021.9 -9.9 -9.999 -99.9 -99.99 -9.99
2020/02/16 01:24 EST   -0.10   0.10    5   61    8  68.0  70.5 1021.9 -9.9 -9.999 -99.9 -99.99 -9.99
2020/02/16 01:30 EST   -0.12   0.09    8   57   10  67.8  70.5 1021.8 -9.9 -9.999 -99.9 -99.99 -9.99
2020/02/16 01:36 EST   -0.13   0.08    7   59    9  68.0  70.5 1021.8 -9.9 -9.999 -99.9 -99.99 -9.99
2020/02/16 01:42 EST   -0.15   0.07    7   51    9  67.6  70.5 1021.8 -9.9 -9.999 -99.9 -99.99 -9.99
2020/02/16 01:48 EST   -0.16   0.04    7   44    9  67.5  70.5 1021.8 -9.9 -9.999 -99.9 -99.99 -9.99
2020/02/16 01:54 EST   -0.17   0.03    8   53   10  67.1  70.5 1021.8 -9.9 -9.999 -99.9 -99.99 -9.99
2020/02/16 02:00 EST   -0.18   0.04    8   54   10  67.1  70.5 1021.7 -9.9 -9.999 -99.9 -99.99 -9.99
2020/02/16 02:06 EST   -0.19   0.03    8   57   10  67.1  70.5 1021.6 -9.9 -9.999 -99.9 -99.99 -9.99
2020/02/16 02:12 EST   -0.19   0.02    8   55   11  66.9  70.3 1021.6 -9.9 -9.999 -99.9 -99.99 -9.99
2020/02/16 02:18 EST   -0.20   0.02    8   56   10  66.9  70.3 1021.4 -9.9 -9.999 -99.9 -99.99 -9.99
2020/02/16 02:24 EST   -0.20   0.02    7   59   10  66.7  70.3 1021.3 -9.9 -9.999 -99.9 -99.99 -9.99
2020/02/16 02:30 EST   -0.20   0.02    6   60    9  66.7  70.3 1021.3 -9.9 -9.999 -99.9 -99.99 -9.99
2020/02/16 02:36 EST   -0.20   0.03    5   61    8  66.7  70.3 1021.3 -9.9 -9.999 -99.9 -99.99 -9.99
2020/02/16 02:42 EST   -0.20   0.03    7   59   10  66.7  70.3 1021.2 -9.9 -9.999 -99.9 -99.99 -9.99
2020/02/16 02:48 EST   -0.19   0.03    8   58   10  66.6  70.3 1021.1 -9.9 -9.999 -99.9 -99.99 -9.99
2020/02/16 02:54 EST   -0.19   0.03    7   58    9  66.7  70.3 1021.0 -9.9 -9.999 -99.9 -99.99 -9.99
2020/02/16 03:00 EST   -0.19   0.03    7   59   10  66.6  70.3 1021.0 -9.9 -9.999 -99.9 -99.99 -9.99
2020/02/16 03:06 EST   -0.18   0.04    7   59   11  66.7  70.3 1020.9 -9.9 -9.999 -99.9 -99.99 -9.99
2020/02/16 03:12 EST   -0.17   0.04    8   59   10  66.4  70.3 1020.8 -9.9 -9.999 -99.9 -99.99 -9.99
2020/02/16 03:18 EST   -0.16   0.05    7   59   10  66.4  70.3 1020.7 -9.9 -9.999 -99.9 -99.99 -9.99
2020/02/16 03:24 EST   -0.15   0.06    7   59   10  66.2  70.3 1020.7 -9.9 -9.999 -99.9 -99.99 -9.99
2020/02/16 03:30 EST   -0.14   0.06    9   55   10  66.0  70.3 1020.6 -9.9 -9.999 -99.9 -99.99 -9.99
2020/02/16 03:36 EST   -0.13   0.07    8   57   10  66.0  70.3 1020.5 -9.9 -9.999 -99.9 -99.99 -9.99
2020/02/16 03:42 EST   -0.11   0.08    7   59    9  66.0  70.3 1020.5 -9.9 -9.999 -99.9 -99.99 -9.99
2020/02/16 03:48 EST   -0.10   0.08    7   59   10  66.0  70.3 1020.5 -9.9 -9.999 -99.9 -99.99 -9.99
2020/02/16 03:54 EST   -0.08   0.09    7   62    9  66.0  70.3 1020.4 -9.9 -9.999 -99.9 -99.99 -9.99
2020/02/16 04:00 EST   -0.06   0.10    8   58    9  65.8  70.3 1020.4 -9.9 -9.999 -99.9 -99.99 -9.99
2020/02/16 04:06 EST   -0.05   0.10    7   56    9  65.8  70.3 1020.4 -9.9 -9.999 -99.9 -99.99 -9.99
2020/02/16 04:12 EST   -0.03   0.12    8   52   10  65.7  70.3 1020.4 -9.9 -9.999 -99.9 -99.99 -9.99
2020/02/16 04:18 EST   -0.01   0.15    8   54    9  65.8  70.3 1020.3 -9.9 -9.999 -99.9 -99.99 -9.99
2020/02/16 04:24 EST    0.01   0.16    8   57   10  65.7  70.3 1020.1 -9.9 -9.999 -99.9 -99.99 -9.99
2020/02/16 04:30 EST    0.03   0.17    7   58   10  65.7  70.3 1020.1 -9.9 -9.999 -99.9 -99.99 -9.99
2020/02/16 04:36 EST    0.05   0.19    7   58   10  65.7  70.3 1020.1 -9.9 -9.999 -99.9 -99.99 -9.99
2020/02/16 04:42 EST    0.08   0.21    7   64    9  65.5  70.3 1020.1 -9.9 -9.999 -99.9 -99.99 -9.99
2020/02/16 04:48 EST    0.10   0.22    7   63   10  65.3  70.3 1020.1 -9.9 -9.999 -99.9 -99.99 -9.99
2020/02/16 04:54 EST    0.12   0.24    6   65    9  65.5  70.3 1020.0 -9.9 -9.999 -99.9 -99.99 -9.99
2020/02/16 05:00 EST    0.14   0.26    6   62    9  65.1  70.3 1020.0 -9.9 -9.999 -99.9 -99.99 -9.99
2020/02/16 05:06 EST    0.17   0.28    7   60    9  65.1  70.3 1020.0 -9.9 -9.999 -99.9 -99.99 -9.99
2020/02/16 05:12 EST    0.19   0.33    7   57    8  65.1  70.3 1020.0 -9.9 -9.999 -99.9 -99.99 -9.99
2020/02/16 05:18 EST    0.21   0.32    5   60    8  65.1  70.3 1020.0 -9.9 -9.999 -99.9 -99.99 -9.99
2020/02/16 05:24 EST    0.24   0.34    5   59    8  65.1  70.3 1019.9 -9.9 -9.999 -99.9 -99.99 -9.99
2020/02/16 05:30 EST    0.26   0.36    6   64    8  65.1  70.2 1019.9 -9.9 -9.999 -99.9 -99.99 -9.99
2020/02/16 05:36 EST    0.29   0.40    6   67    8  65.1  70.2 1019.9 -9.9 -9.999 -99.9 -99.99 -9.99
2020/02/16 05:42 EST    0.31   0.42    5   64    9  65.1  70.2 1019.8 -9.9 -9.999 -99.9 -99.99 -9.99
2020/02/16 05:48 EST    0.33   0.45    7   58    9  64.9  70.2 1019.9 -9.9 -9.999 -99.9 -99.99 -9.99
2020/02/16 05:54 EST    0.36   0.47    8   56    8  64.9  70.2 1019.9 -9.9 -9.999 -99.9 -99.99 -9.99
2020/02/16 06:00 EST    0.38   0.50    8   59    9  64.9  70.2 1019.8 -9.9 -9.999 -99.9 -99.99 -9.99
2020/02/16 06:06 EST    0.41   0.52    6   61   10  64.9  70.3 1019.9 -9.9 -9.999 -99.9 -99.99 -9.99
2020/02/16 06:12 EST    0.43   0.55    6   65    9  64.9  70.3 1019.9 -9.9 -9.999 -99.9 -99.99 -9.99
2020/02/16 06:18 EST    0.45   0.57    5   64    9  64.9  70.3 1019.9 -9.9 -9.999 -99.9 -99.99 -9.99
2020/02/16 06:24 EST    0.47   0.59    5   64    8  64.9  70.3 1019.9 -9.9 -9.999 -99.9 -99.99 -9.99
2020/02/16 06:30 EST    0.50   0.62    5   60    8  64.8  70.3 1020.1 -9.9 -9.999 -99.9 -99.99 -9.99
2020/02/16 06:36 EST    0.52   0.66    5   63    9  64.9  70.3 1020.1 -9.9 -9.999 -99.9 -99.99 -9.99
2020/02/16 06:42 EST    0.54   0.68    5   59    8  64.9  70.3 1020.1 -9.9 -9.999 -99.9 -99.99 -9.99
2020/02/16 06:48 EST    0.56   0.71    6   71    9  64.9  70.2 1020.0 -9.9 -9.999 -99.9 -99.99 -9.99
2020/02/16 06:54 EST    0.58   0.73    6   72    9  64.9  70.3 1020.0 -9.9 -9.999 -99.9 -99.99 -9.99
2020/02/16 07:00 EST    0.60   0.76    6   68   10  64.9  70.3 1020.1 -9.9 -9.999 -99.9 -99.99 -9.99
2020/02/16 07:06 EST    0.62   0.79    7   69   10  64.9  70.3 1020.1 -9.9 -9.999 -99.9 -99.99 -9.99
2020/02/16 07:12 EST    0.64   0.81    6   71   10  65.1  70.3 1020.2 -9.9 -9.999 -99.9 -99.99 -9.99
2020/02/16 07:18 EST    0.66   0.83    5   79    9  65.1  70.3 1020.2 -9.9 -9.999 -99.9 -99.99 -9.99
2020/02/16 07:24 EST    0.68   0.85    6   74    9  65.1  70.3 1020.1 -9.9 -9.999 -99.9 -99.99 -9.99
2020/02/16 07:30 EST    0.70   0.87    5   85    8  65.1  70.3 1020.0 -9.9 -9.999 -99.9 -99.99 -9.99
2020/02/16 07:36 EST    0.72   0.89    5   83    8  65.1  70.3 1020.0 -9.9 -9.999 -99.9 -99.99 -9.99
2020/02/16 07:42 EST    0.73   0.92    5   79    8  65.1  70.3 1020.1 -9.9 -9.999 -99.9 -99.99 -9.99
2020/02/16 07:48 EST    0.75   0.94    5   70    7  65.3  70.3 1020.1 -9.9 -9.999 -99.9 -99.99 -9.99
2020/02/16 07:54 EST    0.76   0.96    4   75    7  65.5  70.3 1020.2 -9.9 -9.999 -99.9 -99.99 -9.99
2020/02/16 08:00 EST    0.78   0.97    4   88    6  65.8  70.3 1020.3 -9.9 -9.999 -99.9 -99.99 -9.99
2020/02/16 08:06 EST    0.79   0.99    4   86    5  66.2  70.3 1020.4 -9.9 -9.999 -99.9 -99.99 -9.99
2020/02/16 08:12 EST    0.81   1.01    3   84    6  66.6  70.5 1020.3 -9.9 -9.999 -99.9 -99.99 -9.99
2020/02/16 08:18 EST    0.82   1.03    3   85    5  66.7  70.5 1020.4 -9.9 -9.999 -99.9 -99.99 -9.99
2020/02/16 08:24 EST    0.83   1.04    4  100    5  67.3  70.5 1020.3 -9.9 -9.999 -99.9 -99.99 -9.99
2020/02/16 08:30 EST    0.84   1.06    4  101    6  67.6  70.5 1020.3 -9.9 -9.999 -99.9 -99.99 -9.99
2020/02/16 08:36 EST    0.85   1.08    4  103    7  68.0  70.5 1020.3 -9.9 -9.999 -99.9 -99.99 -9.99
2020/02/16 08:42 EST    0.86   1.11    3  105    6  68.5  70.5 1020.3 -9.9 -9.999 -99.9 -99.99 -9.99
2020/02/16 08:48 EST    0.87   1.14    4  109    6  68.5  70.3 1020.4 -9.9 -9.999 -99.9 -99.99 -9.99
2020/02/16 08:54 EST    0.88   1.16    4  116    5  69.1  70.3 1020.3 -9.9 -9.999 -99.9 -99.99 -9.99
2020/02/16 09:00 EST    0.89   1.18    3  117    5  69.3  70.3 1020.2 -9.9 -9.999 -99.9 -99.99 -9.99
2020/02/16 09:06 EST    0.90   1.20    4  130    6  69.3  70.2 1020.2 -9.9 -9.999 -99.9 -99.99 -9.99
2020/02/16 09:12 EST    0.90   1.20    3  127    5  69.4  70.2 1020.3 -9.9 -9.999 -99.9 -99.99 -9.99
2020/02/16 09:18 EST    0.91   1.23    4  129    6  69.6  70.2 1020.2 -9.9 -9.999 -99.9 -99.99 -9.99
2020/02/16 09:24 EST    0.91   1.26    4  136    7  70.3  70.2 1020.2 -9.9 -9.999 -99.9 -99.99 -9.99
2020/02/16 09:30 EST    0.92   1.26    4  136    7  71.1  70.2 1020.1 -9.9 -9.999 -99.9 -99.99 -9.99
2020/02/16 09:36 EST    0.92   1.27    3  135    6  71.1  70.2 1020.1 -9.9 -9.999 -99.9 -99.99 -9.99
2020/02/16 09:42 EST    0.93   1.27    3  142    6  71.8  70.2 1020.1 -9.9 -9.999 -99.9 -99.99 -9.99
2020/02/16 09:48 EST    0.93   1.28    4  146    6  72.0  70.2 1020.1 -9.9 -9.999 -99.9 -99.99 -9.99
2020/02/16 09:54 EST    0.93   1.28    4  156    5  71.6  70.2 1020.1 -9.9 -9.999 -99.9 -99.99 -9.99
2020/02/16 10:00 EST    0.94   1.29    3  165    4  71.2  70.2 1020.1 -9.9 -9.999 -99.9 -99.99 -9.99
2020/02/16 10:06 EST    0.94   1.30    3  158    4  71.4  70.2 1020.0 -9.9 -9.999 -99.9 -99.99 -9.99
2020/02/16 10:12 EST    0.94   1.30    3  143    5  72.5  70.2 1020.0 -9.9 -9.999 -99.9 -99.99 -9.99
2020/02/16 10:18 EST    0.94   1.31 -999 -999 -999 -99.9 -99.9 -999.9 -9.9 -9.999 -99.9 -99.99 -9.99
2020/02/16 10:24 EST    0.94   1.33    6  145    9  73.4  70.2 1019.9 -9.9 -9.999 -99.9 -99.99 -9.99
2020/02/16 10:30 EST    0.94   1.35    7  151   10  73.6  70.2 1019.6 -9.9 -9.999 -99.9 -99.99 -9.99
2020/02/16 10:36 EST    0.94   1.34    4  154    9  73.9  70.2 1019.7 -9.9 -9.999 -99.9 -99.99 -9.99
2020/02/16 10:42 EST    0.94   1.33    4  152    8  74.3  70.2 1019.8 -9.9 -9.999 -99.9 -99.99 -9.99
2020/02/16 10:48 EST    0.94   1.34    4  146    6  74.7  70.2 1019.8 -9.9 -9.999 -99.9 -99.99 -9.99
2020/02/16 10:54 EST    0.94   1.35    4  148    7  74.7  70.2 1019.7 -9.9 -9.999 -99.9 -99.99 -9.99
2020/02/16 11:00 EST    0.94   1.35    5  142    8  74.5  70.3 1019.6 -9.9 -9.999 -99.9 -99.99 -9.99
2020/02/16 11:06 EST    0.94   1.34    5  149    8  74.8  70.3 1019.5 -9.9 -9.999 -99.9 -99.99 -9.99
2020/02/16 11:12 EST    0.93   1.34    4  155    7  74.7  70.3 1019.5 -9.9 -9.999 -99.9 -99.99 -9.99
2020/02/16 11:18 EST    0.93   1.34    6  168    7  73.6  70.3 1019.4 -9.9 -9.999 -99.9 -99.99 -9.99
2020/02/16 11:24 EST    0.93   1.34    5  159    7  73.6  70.3 1019.3 -9.9 -9.999 -99.9 -99.99 -9.99
2020/02/16 11:30 EST    0.93   1.35    5  154    8  74.7  70.3 1019.3 -9.9 -9.999 -99.9 -99.99 -9.99
2020/02/16 11:36 EST    0.93   1.36    6  154    8  75.6  70.3 1019.3 -9.9 -9.999 -99.9 -99.99 -9.99
2020/02/16 11:42 EST    0.93   1.35    3  151    6  76.5  70.3 1019.2 -9.9 -9.999 -99.9 -99.99 -9.99
2020/02/16 11:48 EST    0.93   1.35    4  150    5  76.1  70.3 1019.2 -9.9 -9.999 -99.9 -99.99 -9.99
2020/02/16 11:54 EST    0.93   1.35    6  166    7  75.2  70.5 1019.1 -9.9 -9.999 -99.9 -99.99 -9.99
2020/02/16 12:00 EST    0.93   1.34    5  172    7  75.2  70.5 1019.0 -9.9 -9.999 -99.9 -99.99 -9.99
2020/02/16 12:06 EST    0.93   1.35    5  167    7  74.8  70.5 1019.0 -9.9 -9.999 -99.9 -99.99 -9.99
2020/02/16 12:12 EST    0.93   1.35    4  153    7  75.7  70.5 1019.0 -9.9 -9.999 -99.9 -99.99 -9.99
2020/02/16 12:18 EST    0.93   1.36    5  165    8  75.7  70.5 1019.1 -9.9 -9.999 -99.9 -99.99 -9.99
2020/02/16 12:24 EST    0.93   1.37    6  168    7  75.4  70.5 1019.1 -9.9 -9.999 -99.9 -99.99 -9.99
2020/02/16 12:30 EST    0.93   1.37    5  176    6  75.9  70.5 1019.0 -9.9 -9.999 -99.9 -99.99 -9.99
2020/02/16 12:36 EST    0.93   1.36    5  171    6  76.1  70.5 1019.0 -9.9 -9.999 -99.9 -99.99 -9.99
2020/02/16 12:42 EST    0.94   1.37    5  173    6  76.1  70.5 1018.9 -9.9 -9.999 -99.9 -99.99 -9.99
2020/02/16 12:48 EST    0.94   1.39    4  174    5  76.5  70.7 1018.8 -9.9 -9.999 -99.9 -99.99 -9.99
2020/02/16 12:54 EST    0.94   1.40    4  164    5  76.8  70.7 1018.7 -9.9 -9.999 -99.9 -99.99 -9.99
2020/02/16 13:00 EST    0.95   1.42    4  178    5  77.5  70.7 1018.6 -9.9 -9.999 -99.9 -99.99 -9.99
2020/02/16 13:06 EST    0.96   1.43    4  169    5  77.5  70.7 1018.5 -9.9 -9.999 -99.9 -99.99 -9.99
2020/02/16 13:12 EST    0.96   1.45    3  161    5  78.1  70.7 1018.4 -9.9 -9.999 -99.9 -99.99 -9.99
2020/02/16 13:18 EST    0.97   1.48    2  159    5  78.4  70.7 1018.3 -9.9 -9.999 -99.9 -99.99 -9.99
2020/02/16 13:24 EST    0.98 -99.99 -999 -999 -999 -99.9 -99.9 -999.9 -9.9 -9.999 -99.9 -99.99 -9.99
2020/02/16 13:30 EST    0.98 -99.99 -999 -999 -999 -99.9 -99.9 -999.9 -9.9 -9.999 -99.9 -99.99 -9.99
2020/02/16 13:36 EST    0.99 -99.99 -999 -999 -999 -99.9 -99.9 -999.9 -9.9 -9.999 -99.9 -99.99 -9.99